<?xml version="1.0" encoding="utf-8"?>
<gpx xmlns:xsi="http://www.w3.org/2001/XMLSchema-instance" xmlns:xsd="http://www.w3.org/2001/XMLSchema" version="1.1" creator="Shapelink.com" xmlns="http://www.topografix.com/GPX/1/1" xmlns:gpxtpx="http://www.garmin.com/xmlschemas/TrackPointExtension/v1">
  <metadata>
    <name>Längdskidåkning Skate 20.44 km, 2020-01-03</name>
    <desc></desc>
    <author><name>Per Rooth</name></author> 
    <time>2020-01-03T06:24:34Z</time>
  </metadata>
  <trk>
    <name>Längdskidåkning Skate 20.44 km, 2020-01-03</name>
    <trkseg>
      <trkpt lat="61.303333438527" lon="12.242244562318">
        <ele>443.2</ele>
        <time>2020-01-03T06:24:34Z</time>
      </trkpt>
      <trkpt lat="61.303281973661" lon="12.242293931709">
        <ele>444.6</ele>
        <time>2020-01-03T06:24:36Z</time>
      </trkpt>
      <trkpt lat="61.303197651747" lon="12.24241622363">
        <ele>443.6</ele>
        <time>2020-01-03T06:24:39Z</time>
      </trkpt>
      <trkpt lat="61.302954744285" lon="12.242714870727">
        <ele>443.6</ele>
        <time>2020-01-03T06:24:46Z</time>
      </trkpt>
      <trkpt lat="61.302510252128" lon="12.243088787286">
        <ele>443.8</ele>
        <time>2020-01-03T06:24:59Z</time>
      </trkpt>
      <trkpt lat="61.302041201004" lon="12.243296406949">
        <ele>444.2</ele>
        <time>2020-01-03T06:25:14Z</time>
      </trkpt>
      <trkpt lat="61.301943887145" lon="12.243342088304">
        <ele>444.8</ele>
        <time>2020-01-03T06:25:17Z</time>
      </trkpt>
      <trkpt lat="61.301541388307" lon="12.243553228365">
        <ele>443.6</ele>
        <time>2020-01-03T06:25:28Z</time>
      </trkpt>
      <trkpt lat="61.301318429767" lon="12.243787586289">
        <ele>443.2</ele>
        <time>2020-01-03T06:25:34Z</time>
      </trkpt>
      <trkpt lat="61.300960354999" lon="12.243747939902">
        <ele>444.8</ele>
        <time>2020-01-03T06:25:49Z</time>
      </trkpt>
      <trkpt lat="61.300926827399" lon="12.243741988753">
        <ele>445.2</ele>
        <time>2020-01-03T06:25:51Z</time>
      </trkpt>
      <trkpt lat="61.300868405556" lon="12.243724805858">
        <ele>446.2</ele>
        <time>2020-01-03T06:25:54Z</time>
      </trkpt>
      <trkpt lat="61.300786514393" lon="12.24368272872">
        <ele>447.2</ele>
        <time>2020-01-03T06:25:58Z</time>
      </trkpt>
      <trkpt lat="61.300690793095" lon="12.243628330189">
        <ele>448.2</ele>
        <time>2020-01-03T06:26:02Z</time>
      </trkpt>
      <trkpt lat="61.30052357419" lon="12.24351509072">
        <ele>449.6</ele>
        <time>2020-01-03T06:26:08Z</time>
      </trkpt>
      <trkpt lat="61.30039030198" lon="12.243377124646">
        <ele>448.2</ele>
        <time>2020-01-03T06:26:13Z</time>
      </trkpt>
      <trkpt lat="61.300176898806" lon="12.24317227101">
        <ele>449.4</ele>
        <time>2020-01-03T06:26:22Z</time>
      </trkpt>
      <trkpt lat="61.300000124535" lon="12.243035226945">
        <ele>450.4</ele>
        <time>2020-01-03T06:26:31Z</time>
      </trkpt>
      <trkpt lat="61.299940529226" lon="12.242951156488">
        <ele>451.6</ele>
        <time>2020-01-03T06:26:35Z</time>
      </trkpt>
      <trkpt lat="61.299893339129" lon="12.242832217327">
        <ele>452.6</ele>
        <time>2020-01-03T06:26:39Z</time>
      </trkpt>
      <trkpt lat="61.299871797646" lon="12.242750326164">
        <ele>452.8</ele>
        <time>2020-01-03T06:26:41Z</time>
      </trkpt>
      <trkpt lat="61.299861907004" lon="12.242610180796">
        <ele>453.2</ele>
        <time>2020-01-03T06:26:44Z</time>
      </trkpt>
      <trkpt lat="61.300003225838" lon="12.242096621783">
        <ele>453.6</ele>
        <time>2020-01-03T06:26:53Z</time>
      </trkpt>
      <trkpt lat="61.300080506956" lon="12.241554983405">
        <ele>454.8</ele>
        <time>2020-01-03T06:27:02Z</time>
      </trkpt>
      <trkpt lat="61.300050080659" lon="12.241198501198">
        <ele>455.8</ele>
        <time>2020-01-03T06:27:11Z</time>
      </trkpt>
      <trkpt lat="61.299993586653" lon="12.24109188343">
        <ele>457</ele>
        <time>2020-01-03T06:27:15Z</time>
      </trkpt>
      <trkpt lat="61.299940361588" lon="12.241025750239">
        <ele>458</ele>
        <time>2020-01-03T06:27:18Z</time>
      </trkpt>
      <trkpt lat="61.299845227023" lon="12.240985014205">
        <ele>459.2</ele>
        <time>2020-01-03T06:27:22Z</time>
      </trkpt>
      <trkpt lat="61.299592596557" lon="12.240822321526">
        <ele>459.2</ele>
        <time>2020-01-03T06:27:32Z</time>
      </trkpt>
      <trkpt lat="61.299495869431" lon="12.240619228089">
        <ele>460.4</ele>
        <time>2020-01-03T06:27:40Z</time>
      </trkpt>
      <trkpt lat="61.299434346285" lon="12.240466006957">
        <ele>461.4</ele>
        <time>2020-01-03T06:27:45Z</time>
      </trkpt>
      <trkpt lat="61.299369805655" lon="12.240306247943">
        <ele>462.6</ele>
        <time>2020-01-03T06:27:51Z</time>
      </trkpt>
      <trkpt lat="61.299325716861" lon="12.240193595207">
        <ele>464</ele>
        <time>2020-01-03T06:27:55Z</time>
      </trkpt>
      <trkpt lat="61.299288836501" lon="12.240117655193">
        <ele>465.2</ele>
        <time>2020-01-03T06:27:58Z</time>
      </trkpt>
      <trkpt lat="61.299196048868" lon="12.240003158439">
        <ele>466.4</ele>
        <time>2020-01-03T06:28:03Z</time>
      </trkpt>
      <trkpt lat="61.299024219918" lon="12.23987399336">
        <ele>467.6</ele>
        <time>2020-01-03T06:28:11Z</time>
      </trkpt>
      <trkpt lat="61.298850882226" lon="12.239740469693">
        <ele>468.8</ele>
        <time>2020-01-03T06:28:20Z</time>
      </trkpt>
      <trkpt lat="61.29874828777" lon="12.239690597388">
        <ele>469.8</ele>
        <time>2020-01-03T06:28:25Z</time>
      </trkpt>
      <trkpt lat="61.29868458533" lon="12.23965774034">
        <ele>471</ele>
        <time>2020-01-03T06:28:28Z</time>
      </trkpt>
      <trkpt lat="61.298522730841" lon="12.239604431456">
        <ele>472</ele>
        <time>2020-01-03T06:28:38Z</time>
      </trkpt>
      <trkpt lat="61.298466153016" lon="12.239589344036">
        <ele>473</ele>
        <time>2020-01-03T06:28:42Z</time>
      </trkpt>
      <trkpt lat="61.298451736148" lon="12.239591020416">
        <ele>473.2</ele>
        <time>2020-01-03T06:28:43Z</time>
      </trkpt>
      <trkpt lat="61.298390464459" lon="12.239577022643">
        <ele>474.2</ele>
        <time>2020-01-03T06:28:47Z</time>
      </trkpt>
      <trkpt lat="61.298329779503" lon="12.239567886372">
        <ele>475.4</ele>
        <time>2020-01-03T06:28:50Z</time>
      </trkpt>
      <trkpt lat="61.298235399309" lon="12.239563360146">
        <ele>476.4</ele>
        <time>2020-01-03T06:28:54Z</time>
      </trkpt>
      <trkpt lat="61.297775819732" lon="12.239938617809">
        <ele>476.8</ele>
        <time>2020-01-03T06:29:09Z</time>
      </trkpt>
      <trkpt lat="61.297638440391" lon="12.239962757681">
        <ele>475.4</ele>
        <time>2020-01-03T06:29:12Z</time>
      </trkpt>
      <trkpt lat="61.297218842477" lon="12.239531760383">
        <ele>476.2</ele>
        <time>2020-01-03T06:29:28Z</time>
      </trkpt>
      <trkpt lat="61.296930588936" lon="12.239492449272">
        <ele>475.2</ele>
        <time>2020-01-03T06:29:35Z</time>
      </trkpt>
      <trkpt lat="61.296801088581" lon="12.239566042354">
        <ele>474.2</ele>
        <time>2020-01-03T06:29:38Z</time>
      </trkpt>
      <trkpt lat="61.296763705307" lon="12.239601330153">
        <ele>474</ele>
        <time>2020-01-03T06:29:39Z</time>
      </trkpt>
      <trkpt lat="61.296547536106" lon="12.239889583694">
        <ele>475.4</ele>
        <time>2020-01-03T06:29:46Z</time>
      </trkpt>
      <trkpt lat="61.296153838263" lon="12.24041797867">
        <ele>475.8</ele>
        <time>2020-01-03T06:30:01Z</time>
      </trkpt>
      <trkpt lat="61.295811018553" lon="12.240833301815">
        <ele>475.4</ele>
        <time>2020-01-03T06:30:14Z</time>
      </trkpt>
      <trkpt lat="61.295643464372" lon="12.241060954219">
        <ele>476.4</ele>
        <time>2020-01-03T06:30:21Z</time>
      </trkpt>
      <trkpt lat="61.295225626657" lon="12.241439983737">
        <ele>477.4</ele>
        <time>2020-01-03T06:30:35Z</time>
      </trkpt>
      <trkpt lat="61.295152704127" lon="12.241507122756">
        <ele>477.6</ele>
        <time>2020-01-03T06:30:37Z</time>
      </trkpt>
      <trkpt lat="61.294934774727" lon="12.241663277553">
        <ele>476.6</ele>
        <time>2020-01-03T06:30:43Z</time>
      </trkpt>
      <trkpt lat="61.294753390411" lon="12.241445767248">
        <ele>477.6</ele>
        <time>2020-01-03T06:30:53Z</time>
      </trkpt>
      <trkpt lat="61.294676193112" lon="12.241289947727">
        <ele>478.8</ele>
        <time>2020-01-03T06:30:58Z</time>
      </trkpt>
      <trkpt lat="61.294543004721" lon="12.24117151148">
        <ele>480</ele>
        <time>2020-01-03T06:31:05Z</time>
      </trkpt>
      <trkpt lat="61.294465472146" lon="12.241172014394">
        <ele>481.4</ele>
        <time>2020-01-03T06:31:08Z</time>
      </trkpt>
      <trkpt lat="61.294190294369" lon="12.241472840785">
        <ele>480.2</ele>
        <time>2020-01-03T06:31:18Z</time>
      </trkpt>
      <trkpt lat="61.293939005007" lon="12.242129311193">
        <ele>479.2</ele>
        <time>2020-01-03T06:31:26Z</time>
      </trkpt>
      <trkpt lat="61.293845127727" lon="12.242273312235">
        <ele>478.6</ele>
        <time>2020-01-03T06:31:28Z</time>
      </trkpt>
      <trkpt lat="61.293741695081" lon="12.242366938058">
        <ele>477.8</ele>
        <time>2020-01-03T06:31:30Z</time>
      </trkpt>
      <trkpt lat="61.293647733982" lon="12.24240700354">
        <ele>477</ele>
        <time>2020-01-03T06:31:32Z</time>
      </trkpt>
      <trkpt lat="61.293608674328" lon="12.242414463431">
        <ele>476.4</ele>
        <time>2020-01-03T06:31:33Z</time>
      </trkpt>
      <trkpt lat="61.293290329766" lon="12.242500377906">
        <ele>477.4</ele>
        <time>2020-01-03T06:31:43Z</time>
      </trkpt>
      <trkpt lat="61.293171306786" lon="12.242538264094">
        <ele>478.8</ele>
        <time>2020-01-03T06:31:47Z</time>
      </trkpt>
      <trkpt lat="61.293112633486" lon="12.242574725359">
        <ele>479.8</ele>
        <time>2020-01-03T06:31:49Z</time>
      </trkpt>
      <trkpt lat="61.292966201693" lon="12.242653263762">
        <ele>478.2</ele>
        <time>2020-01-03T06:31:54Z</time>
      </trkpt>
      <trkpt lat="61.292712313942" lon="12.24342875715">
        <ele>478.2</ele>
        <time>2020-01-03T06:32:07Z</time>
      </trkpt>
      <trkpt lat="61.292684402215" lon="12.243740228554">
        <ele>477</ele>
        <time>2020-01-03T06:32:10Z</time>
      </trkpt>
      <trkpt lat="61.292664118017" lon="12.24400627006">
        <ele>476</ele>
        <time>2020-01-03T06:32:12Z</time>
      </trkpt>
      <trkpt lat="61.292642576534" lon="12.244497700857">
        <ele>474.6</ele>
        <time>2020-01-03T06:32:15Z</time>
      </trkpt>
      <trkpt lat="61.292629333132" lon="12.245055516302">
        <ele>473.2</ele>
        <time>2020-01-03T06:32:18Z</time>
      </trkpt>
      <trkpt lat="61.292614664807" lon="12.245247797088">
        <ele>471.8</ele>
        <time>2020-01-03T06:32:19Z</time>
      </trkpt>
      <trkpt lat="61.292585411976" lon="12.245441335159">
        <ele>469.6</ele>
        <time>2020-01-03T06:32:20Z</time>
      </trkpt>
      <trkpt lat="61.292549369806" lon="12.245636046696">
        <ele>467.6</ele>
        <time>2020-01-03T06:32:21Z</time>
      </trkpt>
      <trkpt lat="61.292509304324" lon="12.245820448496">
        <ele>465.8</ele>
        <time>2020-01-03T06:32:22Z</time>
      </trkpt>
      <trkpt lat="61.292466808091" lon="12.245992864179">
        <ele>464.6</ele>
        <time>2020-01-03T06:32:23Z</time>
      </trkpt>
      <trkpt lat="61.292372763173" lon="12.246295031674">
        <ele>462.6</ele>
        <time>2020-01-03T06:32:25Z</time>
      </trkpt>
      <trkpt lat="61.292326746542" lon="12.246438613621">
        <ele>461</ele>
        <time>2020-01-03T06:32:26Z</time>
      </trkpt>
      <trkpt lat="61.292279221169" lon="12.246572724021">
        <ele>459.4</ele>
        <time>2020-01-03T06:32:27Z</time>
      </trkpt>
      <trkpt lat="61.292182326405" lon="12.246826360315">
        <ele>457.8</ele>
        <time>2020-01-03T06:32:29Z</time>
      </trkpt>
      <trkpt lat="61.29189692271" lon="12.247414099143">
        <ele>458.6</ele>
        <time>2020-01-03T06:32:35Z</time>
      </trkpt>
      <trkpt lat="61.291561898167" lon="12.247801426742">
        <ele>457.2</ele>
        <time>2020-01-03T06:32:42Z</time>
      </trkpt>
      <trkpt lat="61.291434074192" lon="12.24787619329">
        <ele>457.2</ele>
        <time>2020-01-03T06:32:45Z</time>
      </trkpt>
      <trkpt lat="61.291351847753" lon="12.24793486659">
        <ele>457.2</ele>
        <time>2020-01-03T06:32:47Z</time>
      </trkpt>
      <trkpt lat="61.291052697742" lon="12.248258072654">
        <ele>457.4</ele>
        <time>2020-01-03T06:32:56Z</time>
      </trkpt>
      <trkpt lat="61.290904841026" lon="12.248358739273">
        <ele>456.8</ele>
        <time>2020-01-03T06:33:00Z</time>
      </trkpt>
      <trkpt lat="61.290746255478" lon="12.248469380353">
        <ele>457</ele>
        <time>2020-01-03T06:33:04Z</time>
      </trkpt>
      <trkpt lat="61.290602673531" lon="12.248580105252">
        <ele>457.6</ele>
        <time>2020-01-03T06:33:08Z</time>
      </trkpt>
      <trkpt lat="61.290305618995" lon="12.248788311648">
        <ele>457.8</ele>
        <time>2020-01-03T06:33:16Z</time>
      </trkpt>
      <trkpt lat="61.290269744463" lon="12.248813373529">
        <ele>457.8</ele>
        <time>2020-01-03T06:33:17Z</time>
      </trkpt>
      <trkpt lat="61.28984587178" lon="12.249146721692">
        <ele>458.4</ele>
        <time>2020-01-03T06:33:29Z</time>
      </trkpt>
      <trkpt lat="61.28939660194" lon="12.249470598308">
        <ele>457.6</ele>
        <time>2020-01-03T06:33:42Z</time>
      </trkpt>
      <trkpt lat="61.289363744892" lon="12.249506891935">
        <ele>457.6</ele>
        <time>2020-01-03T06:33:43Z</time>
      </trkpt>
      <trkpt lat="61.288949511394" lon="12.249923220908">
        <ele>457.8</ele>
        <time>2020-01-03T06:33:55Z</time>
      </trkpt>
      <trkpt lat="61.288796206443" lon="12.250082141732">
        <ele>458.2</ele>
        <time>2020-01-03T06:33:59Z</time>
      </trkpt>
      <trkpt lat="61.288620354181" lon="12.25028431316">
        <ele>457.6</ele>
        <time>2020-01-03T06:34:04Z</time>
      </trkpt>
      <trkpt lat="61.288454727837" lon="12.250499476533">
        <ele>456.8</ele>
        <time>2020-01-03T06:34:09Z</time>
      </trkpt>
      <trkpt lat="61.288326903862" lon="12.25068077703">
        <ele>457</ele>
        <time>2020-01-03T06:34:13Z</time>
      </trkpt>
      <trkpt lat="61.28826504544" lon="12.250779180536">
        <ele>456.8</ele>
        <time>2020-01-03T06:34:15Z</time>
      </trkpt>
      <trkpt lat="61.288225315234" lon="12.250827041185">
        <ele>456.8</ele>
        <time>2020-01-03T06:34:16Z</time>
      </trkpt>
      <trkpt lat="61.288154655817" lon="12.250947656726">
        <ele>456.6</ele>
        <time>2020-01-03T06:34:18Z</time>
      </trkpt>
      <trkpt lat="61.288082990572" lon="12.251052262838">
        <ele>456.2</ele>
        <time>2020-01-03T06:34:20Z</time>
      </trkpt>
      <trkpt lat="61.287977630089" lon="12.251207244169">
        <ele>455.6</ele>
        <time>2020-01-03T06:34:23Z</time>
      </trkpt>
      <trkpt lat="61.287911077803" lon="12.251303049286">
        <ele>455.4</ele>
        <time>2020-01-03T06:34:25Z</time>
      </trkpt>
      <trkpt lat="61.287690382376" lon="12.251655256724">
        <ele>455</ele>
        <time>2020-01-03T06:34:31Z</time>
      </trkpt>
      <trkpt lat="61.287608994127" lon="12.251769502021">
        <ele>454.4</ele>
        <time>2020-01-03T06:34:33Z</time>
      </trkpt>
      <trkpt lat="61.287488210948" lon="12.251932362338">
        <ele>453.2</ele>
        <time>2020-01-03T06:34:36Z</time>
      </trkpt>
      <trkpt lat="61.287268940444" lon="12.252269901451">
        <ele>452.2</ele>
        <time>2020-01-03T06:34:42Z</time>
      </trkpt>
      <trkpt lat="61.287092752906" lon="12.252499733149">
        <ele>452</ele>
        <time>2020-01-03T06:34:47Z</time>
      </trkpt>
      <trkpt lat="61.287013963046" lon="12.252580869941">
        <ele>452.2</ele>
        <time>2020-01-03T06:34:49Z</time>
      </trkpt>
      <trkpt lat="61.286589335992" lon="12.252873314432">
        <ele>451.4</ele>
        <time>2020-01-03T06:35:01Z</time>
      </trkpt>
      <trkpt lat="61.286136210478" lon="12.25301094523">
        <ele>452.8</ele>
        <time>2020-01-03T06:35:15Z</time>
      </trkpt>
      <trkpt lat="61.285708230664" lon="12.253291403604">
        <ele>452</ele>
        <time>2020-01-03T06:35:27Z</time>
      </trkpt>
      <trkpt lat="61.285265498706" lon="12.253587368493">
        <ele>452</ele>
        <time>2020-01-03T06:35:40Z</time>
      </trkpt>
      <trkpt lat="61.284881356229" lon="12.253856343664">
        <ele>453.2</ele>
        <time>2020-01-03T06:35:51Z</time>
      </trkpt>
      <trkpt lat="61.284458237917" lon="12.254180639375">
        <ele>453.2</ele>
        <time>2020-01-03T06:36:04Z</time>
      </trkpt>
      <trkpt lat="61.284347513018" lon="12.254215256622">
        <ele>452.8</ele>
        <time>2020-01-03T06:36:10Z</time>
      </trkpt>
      <trkpt lat="61.284372993994" lon="12.25419027856">
        <ele>452.8</ele>
        <time>2020-01-03T06:36:12Z</time>
      </trkpt>
      <trkpt lat="61.284789993519" lon="12.253832790525">
        <ele>453.6</ele>
        <time>2020-01-03T06:36:25Z</time>
      </trkpt>
      <trkpt lat="61.284942041185" lon="12.25371670121">
        <ele>453.6</ele>
        <time>2020-01-03T06:36:29Z</time>
      </trkpt>
      <trkpt lat="61.285167514295" lon="12.253626009052">
        <ele>452.6</ele>
        <time>2020-01-03T06:36:34Z</time>
      </trkpt>
      <trkpt lat="61.285298020478" lon="12.253553589436">
        <ele>452.4</ele>
        <time>2020-01-03T06:36:37Z</time>
      </trkpt>
      <trkpt lat="61.285383934953" lon="12.253472452644">
        <ele>452.4</ele>
        <time>2020-01-03T06:36:39Z</time>
      </trkpt>
      <trkpt lat="61.285687108276" lon="12.253168944045">
        <ele>452.6</ele>
        <time>2020-01-03T06:36:47Z</time>
      </trkpt>
      <trkpt lat="61.285774363855" lon="12.253094009859">
        <ele>452.2</ele>
        <time>2020-01-03T06:36:49Z</time>
      </trkpt>
      <trkpt lat="61.285855835923" lon="12.253027289935">
        <ele>452</ele>
        <time>2020-01-03T06:36:51Z</time>
      </trkpt>
      <trkpt lat="61.286319103536" lon="12.252762254257">
        <ele>452.6</ele>
        <time>2020-01-03T06:37:03Z</time>
      </trkpt>
      <trkpt lat="61.286743060038" lon="12.252664186027">
        <ele>451.8</ele>
        <time>2020-01-03T06:37:12Z</time>
      </trkpt>
      <trkpt lat="61.286909189296" lon="12.252519514433">
        <ele>451.8</ele>
        <time>2020-01-03T06:37:16Z</time>
      </trkpt>
      <trkpt lat="61.287312693962" lon="12.252027329265">
        <ele>452.2</ele>
        <time>2020-01-03T06:37:28Z</time>
      </trkpt>
      <trkpt lat="61.287698764276" lon="12.251548136042">
        <ele>452.2</ele>
        <time>2020-01-03T06:37:40Z</time>
      </trkpt>
      <trkpt lat="61.287968074723" lon="12.251086963904">
        <ele>453.2</ele>
        <time>2020-01-03T06:37:51Z</time>
      </trkpt>
      <trkpt lat="61.288243503957" lon="12.250657726805">
        <ele>454.2</ele>
        <time>2020-01-03T06:38:01Z</time>
      </trkpt>
      <trkpt lat="61.288439808055" lon="12.250395457154">
        <ele>455.2</ele>
        <time>2020-01-03T06:38:08Z</time>
      </trkpt>
      <trkpt lat="61.288840295237" lon="12.249919281415">
        <ele>456.4</ele>
        <time>2020-01-03T06:38:20Z</time>
      </trkpt>
      <trkpt lat="61.288911960482" lon="12.249849376369">
        <ele>456.6</ele>
        <time>2020-01-03T06:38:22Z</time>
      </trkpt>
      <trkpt lat="61.289288140154" lon="12.249545783951">
        <ele>456</ele>
        <time>2020-01-03T06:38:32Z</time>
      </trkpt>
      <trkpt lat="61.289448402082" lon="12.249434556138">
        <ele>457.6</ele>
        <time>2020-01-03T06:38:36Z</time>
      </trkpt>
      <trkpt lat="61.28957262184" lon="12.249346630007">
        <ele>458</ele>
        <time>2020-01-03T06:38:39Z</time>
      </trkpt>
      <trkpt lat="61.289651830795" lon="12.249274964762">
        <ele>458.4</ele>
        <time>2020-01-03T06:38:41Z</time>
      </trkpt>
      <trkpt lat="61.289877387724" lon="12.249094837731">
        <ele>458.4</ele>
        <time>2020-01-03T06:38:47Z</time>
      </trkpt>
      <trkpt lat="61.29024317384" lon="12.248787557277">
        <ele>458.2</ele>
        <time>2020-01-03T06:38:56Z</time>
      </trkpt>
      <trkpt lat="61.290447189286" lon="12.248637185991">
        <ele>457.2</ele>
        <time>2020-01-03T06:39:01Z</time>
      </trkpt>
      <trkpt lat="61.290566966637" lon="12.248538028114">
        <ele>457.2</ele>
        <time>2020-01-03T06:39:04Z</time>
      </trkpt>
      <trkpt lat="61.290995197908" lon="12.248191855644">
        <ele>457.4</ele>
        <time>2020-01-03T06:39:15Z</time>
      </trkpt>
      <trkpt lat="61.291106677178" lon="12.248096134346">
        <ele>457.6</ele>
        <time>2020-01-03T06:39:18Z</time>
      </trkpt>
      <trkpt lat="61.291376155263" lon="12.247847024278">
        <ele>457.8</ele>
        <time>2020-01-03T06:39:25Z</time>
      </trkpt>
      <trkpt lat="61.291712017996" lon="12.247710399308">
        <ele>457.6</ele>
        <time>2020-01-03T06:39:33Z</time>
      </trkpt>
      <trkpt lat="61.29190949556" lon="12.247708471471">
        <ele>456.2</ele>
        <time>2020-01-03T06:39:37Z</time>
      </trkpt>
      <trkpt lat="61.291965905747" lon="12.247703609969">
        <ele>456</ele>
        <time>2020-01-03T06:39:38Z</time>
      </trkpt>
      <trkpt lat="61.292126083856" lon="12.247665053229">
        <ele>455.8</ele>
        <time>2020-01-03T06:39:41Z</time>
      </trkpt>
      <trkpt lat="61.292361363789" lon="12.247722636882">
        <ele>455.4</ele>
        <time>2020-01-03T06:39:46Z</time>
      </trkpt>
      <trkpt lat="61.292406290773" lon="12.247727414565">
        <ele>455.2</ele>
        <time>2020-01-03T06:39:47Z</time>
      </trkpt>
      <trkpt lat="61.292889088213" lon="12.247624065738">
        <ele>455.2</ele>
        <time>2020-01-03T06:39:59Z</time>
      </trkpt>
      <trkpt lat="61.293351266179" lon="12.247469000588">
        <ele>454.4</ele>
        <time>2020-01-03T06:40:08Z</time>
      </trkpt>
      <trkpt lat="61.293401892855" lon="12.247448548752">
        <ele>454</ele>
        <time>2020-01-03T06:40:09Z</time>
      </trkpt>
      <trkpt lat="61.293550923037" lon="12.247390378366">
        <ele>452.6</ele>
        <time>2020-01-03T06:40:12Z</time>
      </trkpt>
      <trkpt lat="61.293770444998" lon="12.247319970406">
        <ele>451.4</ele>
        <time>2020-01-03T06:40:16Z</time>
      </trkpt>
      <trkpt lat="61.293884941752" lon="12.247273450861">
        <ele>450.2</ele>
        <time>2020-01-03T06:40:18Z</time>
      </trkpt>
      <trkpt lat="61.294012346632" lon="12.24722072871">
        <ele>449.2</ele>
        <time>2020-01-03T06:40:20Z</time>
      </trkpt>
      <trkpt lat="61.294485923982" lon="12.247078990781">
        <ele>448</ele>
        <time>2020-01-03T06:40:27Z</time>
      </trkpt>
      <trkpt lat="61.294609976102" lon="12.247058036031">
        <ele>446.8</ele>
        <time>2020-01-03T06:40:29Z</time>
      </trkpt>
      <trkpt lat="61.294711145635" lon="12.247010007744">
        <ele>446.6</ele>
        <time>2020-01-03T06:40:31Z</time>
      </trkpt>
      <trkpt lat="61.294817763403" lon="12.246964913122">
        <ele>447.2</ele>
        <time>2020-01-03T06:40:33Z</time>
      </trkpt>
      <trkpt lat="61.294917843289" lon="12.246938426318">
        <ele>448</ele>
        <time>2020-01-03T06:40:35Z</time>
      </trkpt>
      <trkpt lat="61.295093527913" lon="12.246880758846">
        <ele>448</ele>
        <time>2020-01-03T06:40:39Z</time>
      </trkpt>
      <trkpt lat="61.29533853085" lon="12.2467773262">
        <ele>448</ele>
        <time>2020-01-03T06:40:45Z</time>
      </trkpt>
      <trkpt lat="61.295794338572" lon="12.246668780595">
        <ele>447.8</ele>
        <time>2020-01-03T06:40:55Z</time>
      </trkpt>
      <trkpt lat="61.296020733691" lon="12.24659711535">
        <ele>447</ele>
        <time>2020-01-03T06:40:59Z</time>
      </trkpt>
      <trkpt lat="61.296300605332" lon="12.246521762069">
        <ele>445.8</ele>
        <time>2020-01-03T06:41:04Z</time>
      </trkpt>
      <trkpt lat="61.296650130562" lon="12.24644791753">
        <ele>445.4</ele>
        <time>2020-01-03T06:41:11Z</time>
      </trkpt>
      <trkpt lat="61.296939138474" lon="12.246376587561">
        <ele>445.4</ele>
        <time>2020-01-03T06:41:17Z</time>
      </trkpt>
      <trkpt lat="61.297095041814" lon="12.246337444088">
        <ele>444.8</ele>
        <time>2020-01-03T06:41:20Z</time>
      </trkpt>
      <trkpt lat="61.297312216843" lon="12.246278435512">
        <ele>443.6</ele>
        <time>2020-01-03T06:41:24Z</time>
      </trkpt>
      <trkpt lat="61.297423528475" lon="12.246251194337">
        <ele>442.8</ele>
        <time>2020-01-03T06:41:26Z</time>
      </trkpt>
      <trkpt lat="61.297478178463" lon="12.246230155768">
        <ele>442.4</ele>
        <time>2020-01-03T06:41:27Z</time>
      </trkpt>
      <trkpt lat="61.297648331033" lon="12.24615538922">
        <ele>441.4</ele>
        <time>2020-01-03T06:41:30Z</time>
      </trkpt>
      <trkpt lat="61.297809766427" lon="12.246067211632">
        <ele>440.4</ele>
        <time>2020-01-03T06:41:33Z</time>
      </trkpt>
      <trkpt lat="61.298058541219" lon="12.245981129519">
        <ele>440.6</ele>
        <time>2020-01-03T06:41:38Z</time>
      </trkpt>
      <trkpt lat="61.298188041574" lon="12.245936789268">
        <ele>441.6</ele>
        <time>2020-01-03T06:41:41Z</time>
      </trkpt>
      <trkpt lat="61.298417286539" lon="12.245838050486">
        <ele>441.4</ele>
        <time>2020-01-03T06:41:47Z</time>
      </trkpt>
      <trkpt lat="61.298859347945" lon="12.245646524071">
        <ele>441.4</ele>
        <time>2020-01-03T06:41:57Z</time>
      </trkpt>
      <trkpt lat="61.299304343016" lon="12.245514928241">
        <ele>441.6</ele>
        <time>2020-01-03T06:42:07Z</time>
      </trkpt>
      <trkpt lat="61.299388245835" lon="12.245492800025">
        <ele>442</ele>
        <time>2020-01-03T06:42:09Z</time>
      </trkpt>
      <trkpt lat="61.299818404943" lon="12.24522416013">
        <ele>441</ele>
        <time>2020-01-03T06:42:20Z</time>
      </trkpt>
      <trkpt lat="61.299846232851" lon="12.245150231772">
        <ele>440.8</ele>
        <time>2020-01-03T06:42:21Z</time>
      </trkpt>
      <trkpt lat="61.299944217262" lon="12.244942695928">
        <ele>440.6</ele>
        <time>2020-01-03T06:42:24Z</time>
      </trkpt>
      <trkpt lat="61.300083440621" lon="12.244762149802">
        <ele>439.4</ele>
        <time>2020-01-03T06:42:28Z</time>
      </trkpt>
      <trkpt lat="61.300388374143" lon="12.244468615664">
        <ele>439.8</ele>
        <time>2020-01-03T06:43:31Z</time>
      </trkpt>
      <trkpt lat="61.300647207215" lon="12.244140967193">
        <ele>440.6</ele>
        <time>2020-01-03T06:43:41Z</time>
      </trkpt>
      <trkpt lat="61.301081892549" lon="12.244091262526">
        <ele>439.2</ele>
        <time>2020-01-03T06:43:50Z</time>
      </trkpt>
      <trkpt lat="61.301291020954" lon="12.244059159849">
        <ele>438.4</ele>
        <time>2020-01-03T06:43:54Z</time>
      </trkpt>
      <trkpt lat="61.301377270705" lon="12.243972491003">
        <ele>438.4</ele>
        <time>2020-01-03T06:43:56Z</time>
      </trkpt>
      <trkpt lat="61.301432339788" lon="12.243847097779">
        <ele>438.4</ele>
        <time>2020-01-03T06:43:58Z</time>
      </trkpt>
      <trkpt lat="61.301500568454" lon="12.243533782357">
        <ele>438.6</ele>
        <time>2020-01-03T06:44:04Z</time>
      </trkpt>
      <trkpt lat="61.301459748601" lon="12.243451472099">
        <ele>439.2</ele>
        <time>2020-01-03T06:44:06Z</time>
      </trkpt>
      <trkpt lat="61.301068146233" lon="12.243370167669">
        <ele>440.4</ele>
        <time>2020-01-03T06:44:19Z</time>
      </trkpt>
      <trkpt lat="61.301052639718" lon="12.243354242059">
        <ele>440.6</ele>
        <time>2020-01-03T06:44:20Z</time>
      </trkpt>
      <trkpt lat="61.30101056258" lon="12.243348123272">
        <ele>441.2</ele>
        <time>2020-01-03T06:44:22Z</time>
      </trkpt>
      <trkpt lat="61.300989440192" lon="12.243355164068">
        <ele>441.8</ele>
        <time>2020-01-03T06:44:23Z</time>
      </trkpt>
      <trkpt lat="61.300971670564" lon="12.243338484087">
        <ele>442.2</ele>
        <time>2020-01-03T06:44:24Z</time>
      </trkpt>
      <trkpt lat="61.300939651706" lon="12.243321720287">
        <ele>442.8</ele>
        <time>2020-01-03T06:44:26Z</time>
      </trkpt>
      <trkpt lat="61.300917188214" lon="12.243328677264">
        <ele>443.4</ele>
        <time>2020-01-03T06:44:27Z</time>
      </trkpt>
      <trkpt lat="61.300848205177" lon="12.243380728863">
        <ele>444.2</ele>
        <time>2020-01-03T06:44:30Z</time>
      </trkpt>
      <trkpt lat="61.300830267911" lon="12.243416519576">
        <ele>444.6</ele>
        <time>2020-01-03T06:44:31Z</time>
      </trkpt>
      <trkpt lat="61.300818030337" lon="12.243461111284">
        <ele>444.8</ele>
        <time>2020-01-03T06:44:32Z</time>
      </trkpt>
      <trkpt lat="61.300813839387" lon="12.243581391549">
        <ele>444.6</ele>
        <time>2020-01-03T06:44:34Z</time>
      </trkpt>
      <trkpt lat="61.300904196269" lon="12.24371038899">
        <ele>444.2</ele>
        <time>2020-01-03T06:44:37Z</time>
      </trkpt>
      <trkpt lat="61.301023805982" lon="12.243750203015">
        <ele>443.4</ele>
        <time>2020-01-03T06:44:39Z</time>
      </trkpt>
      <trkpt lat="61.301330583522" lon="12.243770235756">
        <ele>441.8</ele>
        <time>2020-01-03T06:44:43Z</time>
      </trkpt>
      <trkpt lat="61.301457569307" lon="12.243666048739">
        <ele>440.4</ele>
        <time>2020-01-03T06:44:45Z</time>
      </trkpt>
      <trkpt lat="61.301607605317" lon="12.243506289725">
        <ele>439.8</ele>
        <time>2020-01-03T06:44:48Z</time>
      </trkpt>
      <trkpt lat="61.302069280369" lon="12.243263046987">
        <ele>440.6</ele>
        <time>2020-01-03T06:45:01Z</time>
      </trkpt>
      <trkpt lat="61.302248485391" lon="12.24318652024">
        <ele>440.8</ele>
        <time>2020-01-03T06:45:05Z</time>
      </trkpt>
      <trkpt lat="61.302440849996" lon="12.243086272716">
        <ele>440.6</ele>
        <time>2020-01-03T06:45:09Z</time>
      </trkpt>
      <trkpt lat="61.302577558785" lon="12.24297445817">
        <ele>440</ele>
        <time>2020-01-03T06:45:12Z</time>
      </trkpt>
      <trkpt lat="61.302658611758" lon="12.242888627514">
        <ele>440</ele>
        <time>2020-01-03T06:45:14Z</time>
      </trkpt>
      <trkpt lat="61.302808983044" lon="12.242730041966">
        <ele>439.8</ele>
        <time>2020-01-03T06:45:18Z</time>
      </trkpt>
      <trkpt lat="61.302928676576" lon="12.242618897972">
        <ele>439.4</ele>
        <time>2020-01-03T06:45:21Z</time>
      </trkpt>
      <trkpt lat="61.303000509459" lon="12.242552261867">
        <ele>439.4</ele>
        <time>2020-01-03T06:45:23Z</time>
      </trkpt>
      <trkpt lat="61.303433434594" lon="12.2421253717">
        <ele>439.6</ele>
        <time>2020-01-03T06:45:36Z</time>
      </trkpt>
      <trkpt lat="61.303522953286" lon="12.24205328736">
        <ele>439.4</ele>
        <time>2020-01-03T06:45:39Z</time>
      </trkpt>
      <trkpt lat="61.303513900834" lon="12.242234587857">
        <ele>439</ele>
        <time>2020-01-03T06:45:42Z</time>
      </trkpt>
      <trkpt lat="61.303086256296" lon="12.242613449737">
        <ele>440</ele>
        <time>2020-01-03T06:45:54Z</time>
      </trkpt>
      <trkpt lat="61.303047615737" lon="12.242643708396">
        <ele>440</ele>
        <time>2020-01-03T06:45:55Z</time>
      </trkpt>
      <trkpt lat="61.302889449284" lon="12.242761054996">
        <ele>439.8</ele>
        <time>2020-01-03T06:45:59Z</time>
      </trkpt>
      <trkpt lat="61.302819879514" lon="12.242825679445">
        <ele>438.8</ele>
        <time>2020-01-03T06:46:01Z</time>
      </trkpt>
      <trkpt lat="61.302756679988" lon="12.242880832347">
        <ele>438.8</ele>
        <time>2020-01-03T06:46:03Z</time>
      </trkpt>
      <trkpt lat="61.302608739453" lon="12.242972614152">
        <ele>438.6</ele>
        <time>2020-01-03T06:46:07Z</time>
      </trkpt>
      <trkpt lat="61.302532799439" lon="12.243037490058">
        <ele>439.2</ele>
        <time>2020-01-03T06:46:09Z</time>
      </trkpt>
      <trkpt lat="61.302458703443" lon="12.243107646561">
        <ele>439.2</ele>
        <time>2020-01-03T06:46:11Z</time>
      </trkpt>
      <trkpt lat="61.302000045875" lon="12.243220718392">
        <ele>440.2</ele>
        <time>2020-01-03T06:46:26Z</time>
      </trkpt>
      <trkpt lat="61.301907342061" lon="12.243175288494">
        <ele>440.4</ele>
        <time>2020-01-03T06:46:29Z</time>
      </trkpt>
      <trkpt lat="61.301780691552" lon="12.243141174161">
        <ele>440.8</ele>
        <time>2020-01-03T06:46:33Z</time>
      </trkpt>
      <trkpt lat="61.301452623986" lon="12.242967333555">
        <ele>441</ele>
        <time>2020-01-03T06:46:43Z</time>
      </trkpt>
      <trkpt lat="61.301229162532" lon="12.242785111049">
        <ele>441.6</ele>
        <time>2020-01-03T06:46:50Z</time>
      </trkpt>
      <trkpt lat="61.301044173999" lon="12.242679834385">
        <ele>442.8</ele>
        <time>2020-01-03T06:46:59Z</time>
      </trkpt>
      <trkpt lat="61.30093177272" lon="12.242608336778">
        <ele>444</ele>
        <time>2020-01-03T06:47:05Z</time>
      </trkpt>
      <trkpt lat="61.300842170209" lon="12.242565589088">
        <ele>445.2</ele>
        <time>2020-01-03T06:47:10Z</time>
      </trkpt>
      <trkpt lat="61.300777881036" lon="12.242519991552">
        <ele>446.6</ele>
        <time>2020-01-03T06:47:14Z</time>
      </trkpt>
      <trkpt lat="61.300739072839" lon="12.24247573512">
        <ele>447.8</ele>
        <time>2020-01-03T06:47:17Z</time>
      </trkpt>
      <trkpt lat="61.300694900226" lon="12.242422174779">
        <ele>448.8</ele>
        <time>2020-01-03T06:47:21Z</time>
      </trkpt>
      <trkpt lat="61.300678471702" lon="12.242421755684">
        <ele>449.2</ele>
        <time>2020-01-03T06:47:22Z</time>
      </trkpt>
      <trkpt lat="61.300657265495" lon="12.242404572789">
        <ele>450</ele>
        <time>2020-01-03T06:47:24Z</time>
      </trkpt>
      <trkpt lat="61.300603621335" lon="12.242385294419">
        <ele>451.2</ele>
        <time>2020-01-03T06:47:27Z</time>
      </trkpt>
      <trkpt lat="61.300590545571" lon="12.242385042962">
        <ele>451.6</ele>
        <time>2020-01-03T06:47:28Z</time>
      </trkpt>
      <trkpt lat="61.300545534768" lon="12.242325280015">
        <ele>452.4</ele>
        <time>2020-01-03T06:47:31Z</time>
      </trkpt>
      <trkpt lat="61.30046573908" lon="12.242144901527">
        <ele>453.6</ele>
        <time>2020-01-03T06:47:36Z</time>
      </trkpt>
      <trkpt lat="61.300427852892" lon="12.242067285133">
        <ele>454</ele>
        <time>2020-01-03T06:47:38Z</time>
      </trkpt>
      <trkpt lat="61.300385440478" lon="12.242060747251">
        <ele>454</ele>
        <time>2020-01-03T06:47:40Z</time>
      </trkpt>
      <trkpt lat="61.300245798024" lon="12.242103746398">
        <ele>452.6</ele>
        <time>2020-01-03T06:47:45Z</time>
      </trkpt>
      <trkpt lat="61.300225513826" lon="12.242055634292">
        <ele>452</ele>
        <time>2020-01-03T06:47:46Z</time>
      </trkpt>
      <trkpt lat="61.300207325103" lon="12.241875926356">
        <ele>450.8</ele>
        <time>2020-01-03T06:47:48Z</time>
      </trkpt>
      <trkpt lat="61.300201206316" lon="12.241604185158">
        <ele>450.2</ele>
        <time>2020-01-03T06:47:51Z</time>
      </trkpt>
      <trkpt lat="61.300195087529" lon="12.241402432825">
        <ele>451.2</ele>
        <time>2020-01-03T06:47:54Z</time>
      </trkpt>
      <trkpt lat="61.300187376181" lon="12.241306543889">
        <ele>451.6</ele>
        <time>2020-01-03T06:47:56Z</time>
      </trkpt>
      <trkpt lat="61.300184526335" lon="12.241217360473">
        <ele>452</ele>
        <time>2020-01-03T06:47:58Z</time>
      </trkpt>
      <trkpt lat="61.300167175802" lon="12.241088782127">
        <ele>453</ele>
        <time>2020-01-03T06:48:01Z</time>
      </trkpt>
      <trkpt lat="61.300112944909" lon="12.240995240123">
        <ele>453.4</ele>
        <time>2020-01-03T06:48:04Z</time>
      </trkpt>
      <trkpt lat="61.300030383194" lon="12.240938578479">
        <ele>454</ele>
        <time>2020-01-03T06:48:07Z</time>
      </trkpt>
      <trkpt lat="61.299999537802" lon="12.240915947349">
        <ele>454</ele>
        <time>2020-01-03T06:48:08Z</time>
      </trkpt>
      <trkpt lat="61.29969208971" lon="12.240677733751">
        <ele>455.2</ele>
        <time>2020-01-03T06:48:21Z</time>
      </trkpt>
      <trkpt lat="61.299634086962" lon="12.240547814301">
        <ele>456.4</ele>
        <time>2020-01-03T06:48:26Z</time>
      </trkpt>
      <trkpt lat="61.299619753913" lon="12.240475227047">
        <ele>457</ele>
        <time>2020-01-03T06:48:28Z</time>
      </trkpt>
      <trkpt lat="61.299618915723" lon="12.240387720011">
        <ele>457.6</ele>
        <time>2020-01-03T06:48:30Z</time>
      </trkpt>
      <trkpt lat="61.299664094164" lon="12.23996535607">
        <ele>458.6</ele>
        <time>2020-01-03T06:48:37Z</time>
      </trkpt>
      <trkpt lat="61.299732741925" lon="12.239692692863">
        <ele>460.2</ele>
        <time>2020-01-03T06:48:42Z</time>
      </trkpt>
      <trkpt lat="61.29979267251" lon="12.239609712053">
        <ele>461</ele>
        <time>2020-01-03T06:48:45Z</time>
      </trkpt>
      <trkpt lat="61.299862745194" lon="12.239579872489">
        <ele>461.2</ele>
        <time>2020-01-03T06:48:47Z</time>
      </trkpt>
      <trkpt lat="61.299889651093" lon="12.239561683766">
        <ele>461.2</ele>
        <time>2020-01-03T06:48:48Z</time>
      </trkpt>
      <trkpt lat="61.300253844648" lon="12.239564785069">
        <ele>461.6</ele>
        <time>2020-01-03T06:48:56Z</time>
      </trkpt>
      <trkpt lat="61.300422320838" lon="12.239408462634">
        <ele>461.2</ele>
        <time>2020-01-03T06:49:00Z</time>
      </trkpt>
      <trkpt lat="61.300581493119" lon="12.23900395214">
        <ele>462.4</ele>
        <time>2020-01-03T06:49:12Z</time>
      </trkpt>
      <trkpt lat="61.300620049859" lon="12.238914098172">
        <ele>463.4</ele>
        <time>2020-01-03T06:49:16Z</time>
      </trkpt>
      <trkpt lat="61.300668161965" lon="12.238790129871">
        <ele>464.8</ele>
        <time>2020-01-03T06:49:20Z</time>
      </trkpt>
      <trkpt lat="61.300789531877" lon="12.238598435818">
        <ele>465.8</ele>
        <time>2020-01-03T06:49:26Z</time>
      </trkpt>
      <trkpt lat="61.301257996268" lon="12.238764145981">
        <ele>465.4</ele>
        <time>2020-01-03T06:49:37Z</time>
      </trkpt>
      <trkpt lat="61.301365200769" lon="12.238882833685">
        <ele>464.6</ele>
        <time>2020-01-03T06:49:39Z</time>
      </trkpt>
      <trkpt lat="61.301586063834" lon="12.239130183554">
        <ele>464</ele>
        <time>2020-01-03T06:49:43Z</time>
      </trkpt>
      <trkpt lat="61.301684048245" lon="12.239160442213">
        <ele>463.2</ele>
        <time>2020-01-03T06:49:45Z</time>
      </trkpt>
      <trkpt lat="61.301773399299" lon="12.239090704805">
        <ele>462.4</ele>
        <time>2020-01-03T06:49:47Z</time>
      </trkpt>
      <trkpt lat="61.301826205269" lon="12.238977884431">
        <ele>462</ele>
        <time>2020-01-03T06:49:49Z</time>
      </trkpt>
      <trkpt lat="61.301889907709" lon="12.238750315846">
        <ele>463.2</ele>
        <time>2020-01-03T06:49:54Z</time>
      </trkpt>
      <trkpt lat="61.301902815835" lon="12.238704047758">
        <ele>463.8</ele>
        <time>2020-01-03T06:49:55Z</time>
      </trkpt>
      <trkpt lat="61.301931398114" lon="12.238592568488">
        <ele>464.6</ele>
        <time>2020-01-03T06:49:57Z</time>
      </trkpt>
      <trkpt lat="61.30201974334" lon="12.238398359865">
        <ele>465.8</ele>
        <time>2020-01-03T06:50:02Z</time>
      </trkpt>
      <trkpt lat="61.302102053598" lon="12.238226782372">
        <ele>466.4</ele>
        <time>2020-01-03T06:50:07Z</time>
      </trkpt>
      <trkpt lat="61.302129630049" lon="12.238158721344">
        <ele>467</ele>
        <time>2020-01-03T06:50:09Z</time>
      </trkpt>
      <trkpt lat="61.302174137938" lon="12.238047074436">
        <ele>467.8</ele>
        <time>2020-01-03T06:50:12Z</time>
      </trkpt>
      <trkpt lat="61.302187465159" lon="12.238002818004">
        <ele>468</ele>
        <time>2020-01-03T06:50:13Z</time>
      </trkpt>
      <trkpt lat="61.302256615834" lon="12.237716576119">
        <ele>469.2</ele>
        <time>2020-01-03T06:50:20Z</time>
      </trkpt>
      <trkpt lat="61.302292322728" lon="12.237480793272">
        <ele>470.2</ele>
        <time>2020-01-03T06:50:26Z</time>
      </trkpt>
      <trkpt lat="61.302307074872" lon="12.237270659039">
        <ele>471.2</ele>
        <time>2020-01-03T06:50:31Z</time>
      </trkpt>
      <trkpt lat="61.302315037677" lon="12.237068487611">
        <ele>472.6</ele>
        <time>2020-01-03T06:50:36Z</time>
      </trkpt>
      <trkpt lat="61.302344541965" lon="12.236900765792">
        <ele>474</ele>
        <time>2020-01-03T06:50:40Z</time>
      </trkpt>
      <trkpt lat="61.302349571105" lon="12.236812001471">
        <ele>474.8</ele>
        <time>2020-01-03T06:50:42Z</time>
      </trkpt>
      <trkpt lat="61.302367508371" lon="12.236768918505">
        <ele>475.2</ele>
        <time>2020-01-03T06:50:43Z</time>
      </trkpt>
      <trkpt lat="61.302442358738" lon="12.236602789247">
        <ele>476.2</ele>
        <time>2020-01-03T06:50:48Z</time>
      </trkpt>
      <trkpt lat="61.302527854118" lon="12.236419728551">
        <ele>477.2</ele>
        <time>2020-01-03T06:50:53Z</time>
      </trkpt>
      <trkpt lat="61.302703287285" lon="12.236320989769">
        <ele>478.4</ele>
        <time>2020-01-03T06:50:59Z</time>
      </trkpt>
      <trkpt lat="61.30315884355" lon="12.236478401851">
        <ele>478.4</ele>
        <time>2020-01-03T06:51:12Z</time>
      </trkpt>
      <trkpt lat="61.303531921919" lon="12.236645117842">
        <ele>477</ele>
        <time>2020-01-03T06:51:18Z</time>
      </trkpt>
      <trkpt lat="61.303780612892" lon="12.236934963944">
        <ele>475.6</ele>
        <time>2020-01-03T06:51:21Z</time>
      </trkpt>
      <trkpt lat="61.303861833503" lon="12.237038480409">
        <ele>475.2</ele>
        <time>2020-01-03T06:51:22Z</time>
      </trkpt>
      <trkpt lat="61.303944562856" lon="12.237135710449">
        <ele>474</ele>
        <time>2020-01-03T06:51:23Z</time>
      </trkpt>
      <trkpt lat="61.304029555322" lon="12.237231012652">
        <ele>471.6</ele>
        <time>2020-01-03T06:51:24Z</time>
      </trkpt>
      <trkpt lat="61.304115469797" lon="12.237319609335">
        <ele>467.8</ele>
        <time>2020-01-03T06:51:25Z</time>
      </trkpt>
      <trkpt lat="61.30419987553" lon="12.237405188534">
        <ele>464</ele>
        <time>2020-01-03T06:51:26Z</time>
      </trkpt>
      <trkpt lat="61.304280174132" lon="12.237489761905">
        <ele>461.4</ele>
        <time>2020-01-03T06:51:27Z</time>
      </trkpt>
      <trkpt lat="61.30435829344" lon="12.237566121014">
        <ele>460.2</ele>
        <time>2020-01-03T06:51:28Z</time>
      </trkpt>
      <trkpt lat="61.304509251459" lon="12.237728059322">
        <ele>458.8</ele>
        <time>2020-01-03T06:51:30Z</time>
      </trkpt>
      <trkpt lat="61.304615198675" lon="12.23779276759">
        <ele>458.4</ele>
        <time>2020-01-03T06:51:31Z</time>
      </trkpt>
      <trkpt lat="61.304785435064" lon="12.237843478085">
        <ele>459.4</ele>
        <time>2020-01-03T06:51:33Z</time>
      </trkpt>
      <trkpt lat="61.304849388961" lon="12.237841131153">
        <ele>460.4</ele>
        <time>2020-01-03T06:51:34Z</time>
      </trkpt>
      <trkpt lat="61.304903536035" lon="12.237846830845">
        <ele>461.6</ele>
        <time>2020-01-03T06:51:35Z</time>
      </trkpt>
      <trkpt lat="61.304974027814" lon="12.237949090025">
        <ele>462.8</ele>
        <time>2020-01-03T06:51:37Z</time>
      </trkpt>
      <trkpt lat="61.304936476902" lon="12.238209934753">
        <ele>463</ele>
        <time>2020-01-03T06:51:40Z</time>
      </trkpt>
      <trkpt lat="61.304843353993" lon="12.238298615255">
        <ele>463</ele>
        <time>2020-01-03T06:51:42Z</time>
      </trkpt>
      <trkpt lat="61.304544036344" lon="12.238423170289">
        <ele>462</ele>
        <time>2020-01-03T06:51:47Z</time>
      </trkpt>
      <trkpt lat="61.304445632838" lon="12.238405652118">
        <ele>461.6</ele>
        <time>2020-01-03T06:51:49Z</time>
      </trkpt>
      <trkpt lat="61.304396598723" lon="12.238388469223">
        <ele>461.2</ele>
        <time>2020-01-03T06:51:50Z</time>
      </trkpt>
      <trkpt lat="61.304075571953" lon="12.238360976591">
        <ele>460.8</ele>
        <time>2020-01-03T06:51:56Z</time>
      </trkpt>
      <trkpt lat="61.304039697421" lon="12.238344212791">
        <ele>460.4</ele>
        <time>2020-01-03T06:51:57Z</time>
      </trkpt>
      <trkpt lat="61.303730992044" lon="12.238073142145">
        <ele>461.6</ele>
        <time>2020-01-03T06:52:08Z</time>
      </trkpt>
      <trkpt lat="61.303455814267" lon="12.238850898646">
        <ele>461.6</ele>
        <time>2020-01-03T06:52:19Z</time>
      </trkpt>
      <trkpt lat="61.303427651083" lon="12.238964221934">
        <ele>461.2</ele>
        <time>2020-01-03T06:52:20Z</time>
      </trkpt>
      <trkpt lat="61.303315920356" lon="12.239275860976">
        <ele>460.2</ele>
        <time>2020-01-03T06:52:23Z</time>
      </trkpt>
      <trkpt lat="61.303222294533" lon="12.239503010466">
        <ele>458.8</ele>
        <time>2020-01-03T06:52:25Z</time>
      </trkpt>
      <trkpt lat="61.303128920167" lon="12.239715407812">
        <ele>457.2</ele>
        <time>2020-01-03T06:52:27Z</time>
      </trkpt>
      <trkpt lat="61.302973519741" lon="12.240016737117">
        <ele>455.4</ele>
        <time>2020-01-03T06:52:30Z</time>
      </trkpt>
      <trkpt lat="61.3027774671" lon="12.240302140812">
        <ele>454.2</ele>
        <time>2020-01-03T06:52:33Z</time>
      </trkpt>
      <trkpt lat="61.302716363049" lon="12.240406746924">
        <ele>453.6</ele>
        <time>2020-01-03T06:52:34Z</time>
      </trkpt>
      <trkpt lat="61.302665484916" lon="12.240511269217">
        <ele>453</ele>
        <time>2020-01-03T06:52:35Z</time>
      </trkpt>
      <trkpt lat="61.302614774421" lon="12.240627693808">
        <ele>451.8</ele>
        <time>2020-01-03T06:52:36Z</time>
      </trkpt>
      <trkpt lat="61.302528357032" lon="12.240866242682">
        <ele>451.4</ele>
        <time>2020-01-03T06:52:38Z</time>
      </trkpt>
      <trkpt lat="61.302506396454" lon="12.240991049173">
        <ele>450.6</ele>
        <time>2020-01-03T06:52:39Z</time>
      </trkpt>
      <trkpt lat="61.302507150825" lon="12.241131362179">
        <ele>449.8</ele>
        <time>2020-01-03T06:52:40Z</time>
      </trkpt>
      <trkpt lat="61.302534811095" lon="12.241270166443">
        <ele>449.2</ele>
        <time>2020-01-03T06:52:41Z</time>
      </trkpt>
      <trkpt lat="61.30258133064" lon="12.241398744789">
        <ele>449</ele>
        <time>2020-01-03T06:52:42Z</time>
      </trkpt>
      <trkpt lat="61.3026936481" lon="12.241610303945">
        <ele>448.4</ele>
        <time>2020-01-03T06:52:44Z</time>
      </trkpt>
      <trkpt lat="61.30274142493" lon="12.241731925314">
        <ele>447.6</ele>
        <time>2020-01-03T06:52:45Z</time>
      </trkpt>
      <trkpt lat="61.302774868711" lon="12.241879027659">
        <ele>446.4</ele>
        <time>2020-01-03T06:52:46Z</time>
      </trkpt>
      <trkpt lat="61.302789620855" lon="12.242047587668">
        <ele>445</ele>
        <time>2020-01-03T06:52:47Z</time>
      </trkpt>
      <trkpt lat="61.302774449616" lon="12.242220757722">
        <ele>443.8</ele>
        <time>2020-01-03T06:52:48Z</time>
      </trkpt>
      <trkpt lat="61.302736982523" lon="12.242373727397">
        <ele>442.6</ele>
        <time>2020-01-03T06:52:49Z</time>
      </trkpt>
      <trkpt lat="61.30268275163" lon="12.242486128676">
        <ele>441.6</ele>
        <time>2020-01-03T06:52:50Z</time>
      </trkpt>
      <trkpt lat="61.302623910692" lon="12.242560224672">
        <ele>440.6</ele>
        <time>2020-01-03T06:52:51Z</time>
      </trkpt>
      <trkpt lat="61.302445627679" lon="12.242718055849">
        <ele>439.4</ele>
        <time>2020-01-03T06:52:54Z</time>
      </trkpt>
      <trkpt lat="61.302328951631" lon="12.242746386671">
        <ele>440.2</ele>
        <time>2020-01-03T06:52:56Z</time>
      </trkpt>
      <trkpt lat="61.302279833697" lon="12.242747643956">
        <ele>440.8</ele>
        <time>2020-01-03T06:52:57Z</time>
      </trkpt>
      <trkpt lat="61.302238594749" lon="12.242743453006">
        <ele>442.2</ele>
        <time>2020-01-03T06:52:58Z</time>
      </trkpt>
      <trkpt lat="61.302196517611" lon="12.242746721947">
        <ele>442.8</ele>
        <time>2020-01-03T06:52:59Z</time>
      </trkpt>
      <trkpt lat="61.302153769921" lon="12.242742698635">
        <ele>442.8</ele>
        <time>2020-01-03T06:53:00Z</time>
      </trkpt>
      <trkpt lat="61.301915556323" lon="12.242644127491">
        <ele>443.4</ele>
        <time>2020-01-03T06:53:08Z</time>
      </trkpt>
      <trkpt lat="61.301688993566" lon="12.242486883047">
        <ele>443.2</ele>
        <time>2020-01-03T06:53:14Z</time>
      </trkpt>
      <trkpt lat="61.301599893969" lon="12.242420833675">
        <ele>443</ele>
        <time>2020-01-03T06:53:16Z</time>
      </trkpt>
      <trkpt lat="61.301456060565" lon="12.242300721048">
        <ele>442.8</ele>
        <time>2020-01-03T06:53:20Z</time>
      </trkpt>
      <trkpt lat="61.301324716192" lon="12.241957817519">
        <ele>444.6</ele>
        <time>2020-01-03T06:53:30Z</time>
      </trkpt>
      <trkpt lat="61.30131482555" lon="12.241920937159">
        <ele>444.8</ele>
        <time>2020-01-03T06:53:31Z</time>
      </trkpt>
      <trkpt lat="61.301296301551" lon="12.241854887787">
        <ele>445.2</ele>
        <time>2020-01-03T06:53:33Z</time>
      </trkpt>
      <trkpt lat="61.30128129795" lon="12.241760675231">
        <ele>445.8</ele>
        <time>2020-01-03T06:53:35Z</time>
      </trkpt>
      <trkpt lat="61.301280208303" lon="12.241722118491">
        <ele>445.8</ele>
        <time>2020-01-03T06:53:36Z</time>
      </trkpt>
      <trkpt lat="61.30126201958" lon="12.241569400273">
        <ele>446.8</ele>
        <time>2020-01-03T06:53:40Z</time>
      </trkpt>
      <trkpt lat="61.301237795889" lon="12.24143889409">
        <ele>448</ele>
        <time>2020-01-03T06:53:44Z</time>
      </trkpt>
      <trkpt lat="61.301235281319" lon="12.241413664571">
        <ele>448.4</ele>
        <time>2020-01-03T06:53:45Z</time>
      </trkpt>
      <trkpt lat="61.301226983238" lon="12.241341496412">
        <ele>448.8</ele>
        <time>2020-01-03T06:53:47Z</time>
      </trkpt>
      <trkpt lat="61.301214829483" lon="12.241311153934">
        <ele>449</ele>
        <time>2020-01-03T06:53:48Z</time>
      </trkpt>
      <trkpt lat="61.30118742067" lon="12.241244266372">
        <ele>449.8</ele>
        <time>2020-01-03T06:53:51Z</time>
      </trkpt>
      <trkpt lat="61.301171662698" lon="12.24122431745">
        <ele>450.2</ele>
        <time>2020-01-03T06:53:52Z</time>
      </trkpt>
      <trkpt lat="61.301126651895" lon="12.241168242539">
        <ele>451.2</ele>
        <time>2020-01-03T06:53:55Z</time>
      </trkpt>
      <trkpt lat="61.301030008588" lon="12.241168493996">
        <ele>452.4</ele>
        <time>2020-01-03T06:53:59Z</time>
      </trkpt>
      <trkpt lat="61.300999414653" lon="12.241180899208">
        <ele>452.6</ele>
        <time>2020-01-03T06:54:00Z</time>
      </trkpt>
      <trkpt lat="61.300815431948" lon="12.24138189717">
        <ele>453.2</ele>
        <time>2020-01-03T06:54:06Z</time>
      </trkpt>
      <trkpt lat="61.300780563244" lon="12.241412155829">
        <ele>453.4</ele>
        <time>2020-01-03T06:54:07Z</time>
      </trkpt>
      <trkpt lat="61.300746029816" lon="12.241441241022">
        <ele>453.4</ele>
        <time>2020-01-03T06:54:08Z</time>
      </trkpt>
      <trkpt lat="61.300549055166" lon="12.242169544313">
        <ele>453</ele>
        <time>2020-01-03T06:54:22Z</time>
      </trkpt>
      <trkpt lat="61.300592138132" lon="12.242253866227">
        <ele>453</ele>
        <time>2020-01-03T06:54:24Z</time>
      </trkpt>
      <trkpt lat="61.300803864926" lon="12.242419073476">
        <ele>452.2</ele>
        <time>2020-01-03T06:54:28Z</time>
      </trkpt>
      <trkpt lat="61.300974268953" lon="12.242522087027">
        <ele>450.2</ele>
        <time>2020-01-03T06:54:30Z</time>
      </trkpt>
      <trkpt lat="61.301065631663" lon="12.242581095603">
        <ele>448.4</ele>
        <time>2020-01-03T06:54:31Z</time>
      </trkpt>
      <trkpt lat="61.301167807024" lon="12.242647144975">
        <ele>446</ele>
        <time>2020-01-03T06:54:32Z</time>
      </trkpt>
      <trkpt lat="61.301266545806" lon="12.242708249026">
        <ele>443.2</ele>
        <time>2020-01-03T06:54:33Z</time>
      </trkpt>
      <trkpt lat="61.301364111122" lon="12.242770358905">
        <ele>440.8</ele>
        <time>2020-01-03T06:54:34Z</time>
      </trkpt>
      <trkpt lat="61.301452875443" lon="12.242829116024">
        <ele>438.6</ele>
        <time>2020-01-03T06:54:35Z</time>
      </trkpt>
      <trkpt lat="61.301545663076" lon="12.242880748528">
        <ele>437.4</ele>
        <time>2020-01-03T06:54:36Z</time>
      </trkpt>
      <trkpt lat="61.302013205458" lon="12.243114771176">
        <ele>437.2</ele>
        <time>2020-01-03T06:54:43Z</time>
      </trkpt>
      <trkpt lat="61.302195260326" lon="12.243109322941">
        <ele>437.4</ele>
        <time>2020-01-03T06:54:46Z</time>
      </trkpt>
      <trkpt lat="61.302440766177" lon="12.243066994346">
        <ele>437.4</ele>
        <time>2020-01-03T06:54:50Z</time>
      </trkpt>
      <trkpt lat="61.302778221471" lon="12.242793995863">
        <ele>437.2</ele>
        <time>2020-01-03T06:54:57Z</time>
      </trkpt>
      <trkpt lat="61.303124980674" lon="12.242446314651">
        <ele>437</ele>
        <time>2020-01-03T06:55:05Z</time>
      </trkpt>
      <trkpt lat="61.303238806876" lon="12.242322681626">
        <ele>437.8</ele>
        <time>2020-01-03T06:55:08Z</time>
      </trkpt>
      <trkpt lat="61.303344502635" lon="12.242220422446">
        <ele>438.4</ele>
        <time>2020-01-03T06:55:11Z</time>
      </trkpt>
      <trkpt lat="61.303465285814" lon="12.242099890724">
        <ele>438.6</ele>
        <time>2020-01-03T06:55:15Z</time>
      </trkpt>
      <trkpt lat="61.303487162573" lon="12.242237856798">
        <ele>438.4</ele>
        <time>2020-01-03T06:55:18Z</time>
      </trkpt>
      <trkpt lat="61.303160017016" lon="12.242520662104">
        <ele>439.2</ele>
        <time>2020-01-03T06:55:28Z</time>
      </trkpt>
      <trkpt lat="61.302855670227" lon="12.242750996716">
        <ele>438.8</ele>
        <time>2020-01-03T06:55:36Z</time>
      </trkpt>
      <trkpt lat="61.302741173473" lon="12.242852333887">
        <ele>439.6</ele>
        <time>2020-01-03T06:55:39Z</time>
      </trkpt>
      <trkpt lat="61.30270454457" lon="12.24288058089">
        <ele>439.4</ele>
        <time>2020-01-03T06:55:40Z</time>
      </trkpt>
      <trkpt lat="61.302637908465" lon="12.242940846751">
        <ele>439.2</ele>
        <time>2020-01-03T06:55:42Z</time>
      </trkpt>
      <trkpt lat="61.30248661517" lon="12.243051404012">
        <ele>439.2</ele>
        <time>2020-01-03T06:55:46Z</time>
      </trkpt>
      <trkpt lat="61.302075399156" lon="12.243234548527">
        <ele>439.6</ele>
        <time>2020-01-03T06:55:58Z</time>
      </trkpt>
      <trkpt lat="61.301833497522" lon="12.243387182926">
        <ele>440.6</ele>
        <time>2020-01-03T06:56:05Z</time>
      </trkpt>
      <trkpt lat="61.301790666013" lon="12.243391206238">
        <ele>440.4</ele>
        <time>2020-01-03T06:56:06Z</time>
      </trkpt>
      <trkpt lat="61.301703578072" lon="12.243409562599">
        <ele>440</ele>
        <time>2020-01-03T06:56:08Z</time>
      </trkpt>
      <trkpt lat="61.301613640285" lon="12.243441749095">
        <ele>439.8</ele>
        <time>2020-01-03T06:56:10Z</time>
      </trkpt>
      <trkpt lat="61.30152269667" lon="12.243476450161">
        <ele>439.2</ele>
        <time>2020-01-03T06:56:12Z</time>
      </trkpt>
      <trkpt lat="61.301322788355" lon="12.243446442959">
        <ele>438.6</ele>
        <time>2020-01-03T06:56:16Z</time>
      </trkpt>
      <trkpt lat="61.301180044598" lon="12.243421464897">
        <ele>438.8</ele>
        <time>2020-01-03T06:56:19Z</time>
      </trkpt>
      <trkpt lat="61.301005365802" lon="12.243422386906">
        <ele>440</ele>
        <time>2020-01-03T06:56:28Z</time>
      </trkpt>
      <trkpt lat="61.300987512355" lon="12.24341199335">
        <ele>440.2</ele>
        <time>2020-01-03T06:56:29Z</time>
      </trkpt>
      <trkpt lat="61.300969323632" lon="12.243397995577">
        <ele>440.6</ele>
        <time>2020-01-03T06:56:30Z</time>
      </trkpt>
      <trkpt lat="61.300902855165" lon="12.243375615904">
        <ele>441.6</ele>
        <time>2020-01-03T06:56:33Z</time>
      </trkpt>
      <trkpt lat="61.300841499657" lon="12.243360360846">
        <ele>442.8</ele>
        <time>2020-01-03T06:56:36Z</time>
      </trkpt>
      <trkpt lat="61.300799087243" lon="12.243348877643">
        <ele>443.2</ele>
        <time>2020-01-03T06:56:38Z</time>
      </trkpt>
      <trkpt lat="61.300696492787" lon="12.243315852957">
        <ele>443.8</ele>
        <time>2020-01-03T06:56:42Z</time>
      </trkpt>
      <trkpt lat="61.300516784851" lon="12.243184257127">
        <ele>444.6</ele>
        <time>2020-01-03T06:56:49Z</time>
      </trkpt>
      <trkpt lat="61.300448807642" lon="12.243093229693">
        <ele>445</ele>
        <time>2020-01-03T06:56:52Z</time>
      </trkpt>
      <trkpt lat="61.300381500985" lon="12.242957862008">
        <ele>446</ele>
        <time>2020-01-03T06:56:57Z</time>
      </trkpt>
      <trkpt lat="61.30033749601" lon="12.242879323605">
        <ele>447</ele>
        <time>2020-01-03T06:57:01Z</time>
      </trkpt>
      <trkpt lat="61.300304303686" lon="12.242800701383">
        <ele>448.2</ele>
        <time>2020-01-03T06:57:05Z</time>
      </trkpt>
      <trkpt lat="61.300279325624" lon="12.242748482146">
        <ele>448.6</ele>
        <time>2020-01-03T06:57:07Z</time>
      </trkpt>
      <trkpt lat="61.300264992575" lon="12.242690144122">
        <ele>449.4</ele>
        <time>2020-01-03T06:57:09Z</time>
      </trkpt>
      <trkpt lat="61.300246468576" lon="12.242632644288">
        <ele>450</ele>
        <time>2020-01-03T06:57:11Z</time>
      </trkpt>
      <trkpt lat="61.300226603473" lon="12.242570869685">
        <ele>450.6</ele>
        <time>2020-01-03T06:57:13Z</time>
      </trkpt>
      <trkpt lat="61.300204391438" lon="12.242467017944">
        <ele>451.6</ele>
        <time>2020-01-03T06:57:16Z</time>
      </trkpt>
      <trkpt lat="61.300201960687" lon="12.242417145639">
        <ele>452</ele>
        <time>2020-01-03T06:57:17Z</time>
      </trkpt>
      <trkpt lat="61.300202463601" lon="12.242302900342">
        <ele>452.6</ele>
        <time>2020-01-03T06:57:19Z</time>
      </trkpt>
      <trkpt lat="61.300188968742" lon="12.241875423442">
        <ele>452.8</ele>
        <time>2020-01-03T06:57:24Z</time>
      </trkpt>
      <trkpt lat="61.300196009538" lon="12.241684232303">
        <ele>451.8</ele>
        <time>2020-01-03T06:57:26Z</time>
      </trkpt>
      <trkpt lat="61.30020254742" lon="12.241617009465">
        <ele>451.4</ele>
        <time>2020-01-03T06:57:27Z</time>
      </trkpt>
      <trkpt lat="61.300187627638" lon="12.241171595299">
        <ele>452</ele>
        <time>2020-01-03T06:57:34Z</time>
      </trkpt>
      <trkpt lat="61.300175138607" lon="12.241083417711">
        <ele>453</ele>
        <time>2020-01-03T06:57:36Z</time>
      </trkpt>
      <trkpt lat="61.300150663459" lon="12.241003119109">
        <ele>452.6</ele>
        <time>2020-01-03T06:57:38Z</time>
      </trkpt>
      <trkpt lat="61.30010783195" lon="12.240957856849">
        <ele>452.6</ele>
        <time>2020-01-03T06:57:40Z</time>
      </trkpt>
      <trkpt lat="61.299876994424" lon="12.240858279877">
        <ele>454</ele>
        <time>2020-01-03T06:57:48Z</time>
      </trkpt>
      <trkpt lat="61.299695945384" lon="12.240759541095">
        <ele>455</ele>
        <time>2020-01-03T06:57:55Z</time>
      </trkpt>
      <trkpt lat="61.299651521314" lon="12.24072978535">
        <ele>455.4</ele>
        <time>2020-01-03T06:57:57Z</time>
      </trkpt>
      <trkpt lat="61.299629644555" lon="12.240660802313">
        <ele>456</ele>
        <time>2020-01-03T06:57:59Z</time>
      </trkpt>
      <trkpt lat="61.299623525768" lon="12.240620653012">
        <ele>456.4</ele>
        <time>2020-01-03T06:58:00Z</time>
      </trkpt>
      <trkpt lat="61.299605923778" lon="12.240526356637">
        <ele>457</ele>
        <time>2020-01-03T06:58:02Z</time>
      </trkpt>
      <trkpt lat="61.29959821243" lon="12.240413033349">
        <ele>457.4</ele>
        <time>2020-01-03T06:58:04Z</time>
      </trkpt>
      <trkpt lat="61.299624280139" lon="12.240200636003">
        <ele>458.4</ele>
        <time>2020-01-03T06:58:08Z</time>
      </trkpt>
      <trkpt lat="61.299634422238" lon="12.240160235245">
        <ele>458.6</ele>
        <time>2020-01-03T06:58:09Z</time>
      </trkpt>
      <trkpt lat="61.299694269004" lon="12.239907772417">
        <ele>459.4</ele>
        <time>2020-01-03T06:58:14Z</time>
      </trkpt>
      <trkpt lat="61.299727964242" lon="12.239828060548">
        <ele>459.6</ele>
        <time>2020-01-03T06:58:16Z</time>
      </trkpt>
      <trkpt lat="61.299910522024" lon="12.239680036194">
        <ele>460.8</ele>
        <time>2020-01-03T06:58:23Z</time>
      </trkpt>
      <trkpt lat="61.300297179071" lon="12.239619435057">
        <ele>460.8</ele>
        <time>2020-01-03T06:58:32Z</time>
      </trkpt>
      <trkpt lat="61.300383764098" lon="12.239540561378">
        <ele>460.4</ele>
        <time>2020-01-03T06:58:34Z</time>
      </trkpt>
      <trkpt lat="61.300479820672" lon="12.239386082961">
        <ele>460.2</ele>
        <time>2020-01-03T06:58:38Z</time>
      </trkpt>
      <trkpt lat="61.300540924723" lon="12.23911207865">
        <ele>461.6</ele>
        <time>2020-01-03T06:58:44Z</time>
      </trkpt>
      <trkpt lat="61.300559029627" lon="12.239053824445">
        <ele>462</ele>
        <time>2020-01-03T06:58:46Z</time>
      </trkpt>
      <trkpt lat="61.300601693498" lon="12.238914768724">
        <ele>463</ele>
        <time>2020-01-03T06:58:51Z</time>
      </trkpt>
      <trkpt lat="61.300637903306" lon="12.238823406014">
        <ele>464.2</ele>
        <time>2020-01-03T06:58:54Z</time>
      </trkpt>
      <trkpt lat="61.300694732588" lon="12.23872651125">
        <ele>465.6</ele>
        <time>2020-01-03T06:58:58Z</time>
      </trkpt>
      <trkpt lat="61.300828759169" lon="12.238567087512">
        <ele>466.6</ele>
        <time>2020-01-03T06:59:04Z</time>
      </trkpt>
      <trkpt lat="61.301109469" lon="12.238581755837">
        <ele>467</ele>
        <time>2020-01-03T06:59:11Z</time>
      </trkpt>
      <trkpt lat="61.301330332065" lon="12.238805887843">
        <ele>465.4</ele>
        <time>2020-01-03T06:59:15Z</time>
      </trkpt>
      <trkpt lat="61.301556894822" lon="12.239067403123">
        <ele>463.8</ele>
        <time>2020-01-03T06:59:19Z</time>
      </trkpt>
      <trkpt lat="61.30166518897" lon="12.239164968439">
        <ele>462.8</ele>
        <time>2020-01-03T06:59:21Z</time>
      </trkpt>
      <trkpt lat="61.301720090415" lon="12.239183073343">
        <ele>462.6</ele>
        <time>2020-01-03T06:59:22Z</time>
      </trkpt>
      <trkpt lat="61.301769459806" lon="12.23916572281">
        <ele>462.6</ele>
        <time>2020-01-03T06:59:23Z</time>
      </trkpt>
      <trkpt lat="61.301855793376" lon="12.239004706511">
        <ele>462.8</ele>
        <time>2020-01-03T06:59:26Z</time>
      </trkpt>
      <trkpt lat="61.301902145283" lon="12.238804295282">
        <ele>463.8</ele>
        <time>2020-01-03T06:59:30Z</time>
      </trkpt>
      <trkpt lat="61.301925111689" lon="12.238720057187">
        <ele>464.2</ele>
        <time>2020-01-03T06:59:32Z</time>
      </trkpt>
      <trkpt lat="61.301959058384" lon="12.23856725515">
        <ele>465</ele>
        <time>2020-01-03T06:59:35Z</time>
      </trkpt>
      <trkpt lat="61.302060227917" lon="12.238278163419">
        <ele>466</ele>
        <time>2020-01-03T06:59:42Z</time>
      </trkpt>
      <trkpt lat="61.302180927277" lon="12.238050008101">
        <ele>467</ele>
        <time>2020-01-03T06:59:49Z</time>
      </trkpt>
      <trkpt lat="61.302278408774" lon="12.237747672968">
        <ele>468.4</ele>
        <time>2020-01-03T06:59:57Z</time>
      </trkpt>
      <trkpt lat="61.302299950257" lon="12.237607192324">
        <ele>469.4</ele>
        <time>2020-01-03T07:00:00Z</time>
      </trkpt>
      <trkpt lat="61.302286455398" lon="12.237218858897">
        <ele>470.8</ele>
        <time>2020-01-03T07:00:08Z</time>
      </trkpt>
      <trkpt lat="61.302291065443" lon="12.237090448189">
        <ele>471.8</ele>
        <time>2020-01-03T07:00:11Z</time>
      </trkpt>
      <trkpt lat="61.302310008537" lon="12.236989949208">
        <ele>472.8</ele>
        <time>2020-01-03T07:00:14Z</time>
      </trkpt>
      <trkpt lat="61.30232149174" lon="12.236950135183">
        <ele>473.2</ele>
        <time>2020-01-03T07:00:15Z</time>
      </trkpt>
      <trkpt lat="61.302345631612" lon="12.236764057003">
        <ele>474</ele>
        <time>2020-01-03T07:00:19Z</time>
      </trkpt>
      <trkpt lat="61.302361305765" lon="12.23672156077">
        <ele>474.2</ele>
        <time>2020-01-03T07:00:20Z</time>
      </trkpt>
      <trkpt lat="61.302404807826" lon="12.236592144234">
        <ele>475.4</ele>
        <time>2020-01-03T07:00:23Z</time>
      </trkpt>
      <trkpt lat="61.302449483353" lon="12.236463901164">
        <ele>476.4</ele>
        <time>2020-01-03T07:00:27Z</time>
      </trkpt>
      <trkpt lat="61.302488962102" lon="12.236321325045">
        <ele>477.2</ele>
        <time>2020-01-03T07:00:30Z</time>
      </trkpt>
      <trkpt lat="61.302604632322" lon="12.236261143003">
        <ele>477.6</ele>
        <time>2020-01-03T07:00:34Z</time>
      </trkpt>
      <trkpt lat="61.303083825545" lon="12.236400534">
        <ele>478.2</ele>
        <time>2020-01-03T07:00:47Z</time>
      </trkpt>
      <trkpt lat="61.303375431846" lon="12.236506062121">
        <ele>477.4</ele>
        <time>2020-01-03T07:00:52Z</time>
      </trkpt>
      <trkpt lat="61.303538795077" lon="12.236621899979">
        <ele>476.4</ele>
        <time>2020-01-03T07:00:54Z</time>
      </trkpt>
      <trkpt lat="61.303621356792" lon="12.236717956553">
        <ele>475.4</ele>
        <time>2020-01-03T07:00:55Z</time>
      </trkpt>
      <trkpt lat="61.303699727557" lon="12.236822395027">
        <ele>474</ele>
        <time>2020-01-03T07:00:56Z</time>
      </trkpt>
      <trkpt lat="61.303782540729" lon="12.236925660035">
        <ele>471.8</ele>
        <time>2020-01-03T07:00:57Z</time>
      </trkpt>
      <trkpt lat="61.30387130505" lon="12.237023979722">
        <ele>469.8</ele>
        <time>2020-01-03T07:00:58Z</time>
      </trkpt>
      <trkpt lat="61.303962081027" lon="12.237125484531">
        <ele>468.2</ele>
        <time>2020-01-03T07:00:59Z</time>
      </trkpt>
      <trkpt lat="61.304137933289" lon="12.237307204123">
        <ele>466.6</ele>
        <time>2020-01-03T07:01:01Z</time>
      </trkpt>
      <trkpt lat="61.304379499647" lon="12.237555978915">
        <ele>465</ele>
        <time>2020-01-03T07:01:04Z</time>
      </trkpt>
      <trkpt lat="61.304603128739" lon="12.237783463681">
        <ele>463.4</ele>
        <time>2020-01-03T07:01:07Z</time>
      </trkpt>
      <trkpt lat="61.304674039613" lon="12.237831911063">
        <ele>463.2</ele>
        <time>2020-01-03T07:01:08Z</time>
      </trkpt>
      <trkpt lat="61.304914767781" lon="12.237877173323">
        <ele>462.2</ele>
        <time>2020-01-03T07:01:12Z</time>
      </trkpt>
      <trkpt lat="61.304980817153" lon="12.238008266239">
        <ele>462</ele>
        <time>2020-01-03T07:01:14Z</time>
      </trkpt>
      <trkpt lat="61.304965143" lon="12.23818671689">
        <ele>461.6</ele>
        <time>2020-01-03T07:01:16Z</time>
      </trkpt>
      <trkpt lat="61.304878977068" lon="12.238290820088">
        <ele>461.6</ele>
        <time>2020-01-03T07:01:18Z</time>
      </trkpt>
      <trkpt lat="61.304769257997" lon="12.238360389858">
        <ele>461.4</ele>
        <time>2020-01-03T07:01:20Z</time>
      </trkpt>
      <trkpt lat="61.304590723527" lon="12.238448399808">
        <ele>460.6</ele>
        <time>2020-01-03T07:01:23Z</time>
      </trkpt>
      <trkpt lat="61.304429707228" lon="12.2384205719">
        <ele>459.4</ele>
        <time>2020-01-03T07:01:26Z</time>
      </trkpt>
      <trkpt lat="61.304109686286" lon="12.238353181424">
        <ele>458.6</ele>
        <time>2020-01-03T07:01:32Z</time>
      </trkpt>
      <trkpt lat="61.303729315664" lon="12.238144472114">
        <ele>460.4</ele>
        <time>2020-01-03T07:01:45Z</time>
      </trkpt>
      <trkpt lat="61.303462603606" lon="12.238833967208">
        <ele>460.2</ele>
        <time>2020-01-03T07:01:56Z</time>
      </trkpt>
      <trkpt lat="61.303432344947" lon="12.238951565265">
        <ele>461.6</ele>
        <time>2020-01-03T07:01:57Z</time>
      </trkpt>
      <trkpt lat="61.303357913675" lon="12.239175361995">
        <ele>460.2</ele>
        <time>2020-01-03T07:01:59Z</time>
      </trkpt>
      <trkpt lat="61.303227072216" lon="12.239526563605">
        <ele>459.2</ele>
        <time>2020-01-03T07:02:02Z</time>
      </trkpt>
      <trkpt lat="61.303004029857" lon="12.239979102386">
        <ele>458</ele>
        <time>2020-01-03T07:02:06Z</time>
      </trkpt>
      <trkpt lat="61.302930520594" lon="12.240091168389">
        <ele>456.8</ele>
        <time>2020-01-03T07:02:07Z</time>
      </trkpt>
      <trkpt lat="61.302857849521" lon="12.240184291298">
        <ele>455.6</ele>
        <time>2020-01-03T07:02:08Z</time>
      </trkpt>
      <trkpt lat="61.30279087814" lon="12.24027800094">
        <ele>454.4</ele>
        <time>2020-01-03T07:02:09Z</time>
      </trkpt>
      <trkpt lat="61.302664898183" lon="12.240490733562">
        <ele>453</ele>
        <time>2020-01-03T07:02:11Z</time>
      </trkpt>
      <trkpt lat="61.302561130261" lon="12.240743699304">
        <ele>452.6</ele>
        <time>2020-01-03T07:02:13Z</time>
      </trkpt>
      <trkpt lat="61.302514862173" lon="12.241039161279">
        <ele>452.2</ele>
        <time>2020-01-03T07:02:15Z</time>
      </trkpt>
      <trkpt lat="61.302552413085" lon="12.241330599942">
        <ele>451.8</ele>
        <time>2020-01-03T07:02:17Z</time>
      </trkpt>
      <trkpt lat="61.302665568735" lon="12.241568981178">
        <ele>450.6</ele>
        <time>2020-01-03T07:02:19Z</time>
      </trkpt>
      <trkpt lat="61.302725918415" lon="12.241685154312">
        <ele>449.6</ele>
        <time>2020-01-03T07:02:20Z</time>
      </trkpt>
      <trkpt lat="61.302770426304" lon="12.241831921381">
        <ele>448.2</ele>
        <time>2020-01-03T07:02:21Z</time>
      </trkpt>
      <trkpt lat="61.302790794321" lon="12.242014060068">
        <ele>446.8</ele>
        <time>2020-01-03T07:02:22Z</time>
      </trkpt>
      <trkpt lat="61.302779814032" lon="12.242197623678">
        <ele>445</ele>
        <time>2020-01-03T07:02:23Z</time>
      </trkpt>
      <trkpt lat="61.302739161817" lon="12.242351766819">
        <ele>444.2</ele>
        <time>2020-01-03T07:02:24Z</time>
      </trkpt>
      <trkpt lat="61.302679734146" lon="12.242466598849">
        <ele>443</ele>
        <time>2020-01-03T07:02:25Z</time>
      </trkpt>
      <trkpt lat="61.302615864068" lon="12.242548070917">
        <ele>441.6</ele>
        <time>2020-01-03T07:02:26Z</time>
      </trkpt>
      <trkpt lat="61.302490470844" lon="12.24266768063">
        <ele>440.2</ele>
        <time>2020-01-03T07:02:28Z</time>
      </trkpt>
      <trkpt lat="61.302427774232" lon="12.242709506311">
        <ele>439.6</ele>
        <time>2020-01-03T07:02:29Z</time>
      </trkpt>
      <trkpt lat="61.302309254166" lon="12.242752421639">
        <ele>439.6</ele>
        <time>2020-01-03T07:02:31Z</time>
      </trkpt>
      <trkpt lat="61.30221168885" lon="12.24273808859">
        <ele>440.6</ele>
        <time>2020-01-03T07:02:33Z</time>
      </trkpt>
      <trkpt lat="61.302128121307" lon="12.242711517967">
        <ele>441.6</ele>
        <time>2020-01-03T07:02:35Z</time>
      </trkpt>
      <trkpt lat="61.302067687808" lon="12.242681343127">
        <ele>442.8</ele>
        <time>2020-01-03T07:02:37Z</time>
      </trkpt>
      <trkpt lat="61.30201555239" lon="12.24264924045">
        <ele>443.8</ele>
        <time>2020-01-03T07:02:39Z</time>
      </trkpt>
      <trkpt lat="61.30186886914" lon="12.242562236328">
        <ele>445</ele>
        <time>2020-01-03T07:02:44Z</time>
      </trkpt>
      <trkpt lat="61.301440805507" lon="12.242186811027">
        <ele>444.6</ele>
        <time>2020-01-03T07:02:56Z</time>
      </trkpt>
      <trkpt lat="61.301360590724" lon="12.241973743129">
        <ele>446</ele>
        <time>2020-01-03T07:03:02Z</time>
      </trkpt>
      <trkpt lat="61.301319100319" lon="12.241759334127">
        <ele>447.4</ele>
        <time>2020-01-03T07:03:08Z</time>
      </trkpt>
      <trkpt lat="61.301293451705" lon="12.241648273952">
        <ele>448.4</ele>
        <time>2020-01-03T07:03:11Z</time>
      </trkpt>
      <trkpt lat="61.301266126711" lon="12.241518941235">
        <ele>449.6</ele>
        <time>2020-01-03T07:03:15Z</time>
      </trkpt>
      <trkpt lat="61.301260929933" lon="12.241486335644">
        <ele>450.2</ele>
        <time>2020-01-03T07:03:16Z</time>
      </trkpt>
      <trkpt lat="61.301260259381" lon="12.241442498307">
        <ele>450.6</ele>
        <time>2020-01-03T07:03:17Z</time>
      </trkpt>
      <trkpt lat="61.301253386223" lon="12.241365384827">
        <ele>451.8</ele>
        <time>2020-01-03T07:03:19Z</time>
      </trkpt>
      <trkpt lat="61.301225809772" lon="12.241304867509">
        <ele>453.2</ele>
        <time>2020-01-03T07:03:22Z</time>
      </trkpt>
      <trkpt lat="61.301221870279" lon="12.241266394588">
        <ele>453.4</ele>
        <time>2020-01-03T07:03:23Z</time>
      </trkpt>
      <trkpt lat="61.301213153103" lon="12.241199590845">
        <ele>453.4</ele>
        <time>2020-01-03T07:03:25Z</time>
      </trkpt>
      <trkpt lat="61.301178116761" lon="12.241161788476">
        <ele>453.6</ele>
        <time>2020-01-03T07:03:27Z</time>
      </trkpt>
      <trkpt lat="61.301089017164" lon="12.241159190087">
        <ele>454.2</ele>
        <time>2020-01-03T07:03:31Z</time>
      </trkpt>
      <trkpt lat="61.300685847774" lon="12.241558084708">
        <ele>454.8</ele>
        <time>2020-01-03T07:03:45Z</time>
      </trkpt>
      <trkpt lat="61.300546708234" lon="12.242157977291">
        <ele>455.4</ele>
        <time>2020-01-03T07:03:56Z</time>
      </trkpt>
      <trkpt lat="61.300883073881" lon="12.242476238034">
        <ele>454.2</ele>
        <time>2020-01-03T07:04:03Z</time>
      </trkpt>
      <trkpt lat="61.301068565328" lon="12.24260565457">
        <ele>452.6</ele>
        <time>2020-01-03T07:04:05Z</time>
      </trkpt>
      <trkpt lat="61.301164873359" lon="12.242666171888">
        <ele>450</ele>
        <time>2020-01-03T07:04:06Z</time>
      </trkpt>
      <trkpt lat="61.301268222186" lon="12.242732807993">
        <ele>446.2</ele>
        <time>2020-01-03T07:04:07Z</time>
      </trkpt>
      <trkpt lat="61.301365452226" lon="12.242804976152">
        <ele>442.6</ele>
        <time>2020-01-03T07:04:08Z</time>
      </trkpt>
      <trkpt lat="61.30145731785" lon="12.242869013868">
        <ele>440.2</ele>
        <time>2020-01-03T07:04:09Z</time>
      </trkpt>
      <trkpt lat="61.301550859854" lon="12.242925256417">
        <ele>438.8</ele>
        <time>2020-01-03T07:04:10Z</time>
      </trkpt>
      <trkpt lat="61.301716150922" lon="12.243034137298">
        <ele>437.8</ele>
        <time>2020-01-03T07:04:12Z</time>
      </trkpt>
      <trkpt lat="61.301949922113" lon="12.243134720098">
        <ele>438</ele>
        <time>2020-01-03T07:04:15Z</time>
      </trkpt>
      <trkpt lat="61.302398689039" lon="12.243045285225">
        <ele>438.4</ele>
        <time>2020-01-03T07:04:21Z</time>
      </trkpt>
      <trkpt lat="61.302586192142" lon="12.242904217848">
        <ele>438.8</ele>
        <time>2020-01-03T07:04:24Z</time>
      </trkpt>
      <trkpt lat="61.303034372335" lon="12.242521416475">
        <ele>438.4</ele>
        <time>2020-01-03T07:04:33Z</time>
      </trkpt>
      <trkpt lat="61.303076533292" lon="12.242484787572">
        <ele>436.8</ele>
        <time>2020-01-03T07:04:34Z</time>
      </trkpt>
      <trkpt lat="61.30323092789" lon="12.242335422114">
        <ele>436.4</ele>
        <time>2020-01-03T07:04:38Z</time>
      </trkpt>
      <trkpt lat="61.303398146795" lon="12.242155378902">
        <ele>436.4</ele>
        <time>2020-01-03T07:04:43Z</time>
      </trkpt>
      <trkpt lat="61.303400326089" lon="12.242334416286">
        <ele>436.8</ele>
        <time>2020-01-03T07:05:20Z</time>
      </trkpt>
      <trkpt lat="61.303377108226" lon="12.242962136777">
        <ele>435.6</ele>
        <time>2020-01-03T07:05:28Z</time>
      </trkpt>
      <trkpt lat="61.303352297802" lon="12.243226920998">
        <ele>434.8</ele>
        <time>2020-01-03T07:05:30Z</time>
      </trkpt>
      <trkpt lat="61.303313741062" lon="12.243338484087">
        <ele>434.2</ele>
        <time>2020-01-03T07:05:31Z</time>
      </trkpt>
      <trkpt lat="61.303260515997" lon="12.243417944499">
        <ele>433.8</ele>
        <time>2020-01-03T07:05:32Z</time>
      </trkpt>
      <trkpt lat="61.303149204365" lon="12.243487262812">
        <ele>433.4</ele>
        <time>2020-01-03T07:05:34Z</time>
      </trkpt>
      <trkpt lat="61.303001431468" lon="12.243487765726">
        <ele>433.4</ele>
        <time>2020-01-03T07:05:37Z</time>
      </trkpt>
      <trkpt lat="61.30287302076" lon="12.24350503244">
        <ele>433.8</ele>
        <time>2020-01-03T07:05:40Z</time>
      </trkpt>
      <trkpt lat="61.302402879989" lon="12.243691529715">
        <ele>434.4</ele>
        <time>2020-01-03T07:05:53Z</time>
      </trkpt>
      <trkpt lat="61.302321659378" lon="12.243727404247">
        <ele>434</ele>
        <time>2020-01-03T07:05:55Z</time>
      </trkpt>
      <trkpt lat="61.302246138459" lon="12.243776689819">
        <ele>434</ele>
        <time>2020-01-03T07:05:57Z</time>
      </trkpt>
      <trkpt lat="61.301950760303" lon="12.243757495268">
        <ele>435.2</ele>
        <time>2020-01-03T07:06:07Z</time>
      </trkpt>
      <trkpt lat="61.301596708847" lon="12.243837542413">
        <ele>436.2</ele>
        <time>2020-01-03T07:06:17Z</time>
      </trkpt>
      <trkpt lat="61.301557481555" lon="12.243857994249">
        <ele>436.2</ele>
        <time>2020-01-03T07:06:18Z</time>
      </trkpt>
      <trkpt lat="61.301376432515" lon="12.244023620593">
        <ele>435.2</ele>
        <time>2020-01-03T07:06:23Z</time>
      </trkpt>
      <trkpt lat="61.301333852463" lon="12.244074498726">
        <ele>435</ele>
        <time>2020-01-03T07:06:24Z</time>
      </trkpt>
      <trkpt lat="61.301206112307" lon="12.244165945255">
        <ele>435.2</ele>
        <time>2020-01-03T07:06:27Z</time>
      </trkpt>
      <trkpt lat="61.300750975137" lon="12.244164185056">
        <ele>436</ele>
        <time>2020-01-03T07:06:40Z</time>
      </trkpt>
      <trkpt lat="61.300717531356" lon="12.244164855608">
        <ele>436.4</ele>
        <time>2020-01-03T07:06:41Z</time>
      </trkpt>
      <trkpt lat="61.300600771489" lon="12.244231407894">
        <ele>437.6</ele>
        <time>2020-01-03T07:06:45Z</time>
      </trkpt>
      <trkpt lat="61.300386362487" lon="12.244511028078">
        <ele>437.8</ele>
        <time>2020-01-03T07:06:52Z</time>
      </trkpt>
      <trkpt lat="61.300249905155" lon="12.24460809048">
        <ele>436.4</ele>
        <time>2020-01-03T07:06:59Z</time>
      </trkpt>
      <trkpt lat="61.300228615129" lon="12.244630889248">
        <ele>436.2</ele>
        <time>2020-01-03T07:07:02Z</time>
      </trkpt>
      <trkpt lat="61.300191986226" lon="12.244674642766">
        <ele>436.2</ele>
        <time>2020-01-03T07:07:05Z</time>
      </trkpt>
      <trkpt lat="61.300101713163" lon="12.244803975483">
        <ele>437.8</ele>
        <time>2020-01-03T07:07:09Z</time>
      </trkpt>
      <trkpt lat="61.29976920319" lon="12.245413674889">
        <ele>438.6</ele>
        <time>2020-01-03T07:07:24Z</time>
      </trkpt>
      <trkpt lat="61.299711703356" lon="12.245437479485">
        <ele>438.8</ele>
        <time>2020-01-03T07:07:26Z</time>
      </trkpt>
      <trkpt lat="61.299579520793" lon="12.245478550795">
        <ele>440</ele>
        <time>2020-01-03T07:07:30Z</time>
      </trkpt>
      <trkpt lat="61.299285902836" lon="12.245577792491">
        <ele>440</ele>
        <time>2020-01-03T07:07:38Z</time>
      </trkpt>
      <trkpt lat="61.299170484073" lon="12.245604949847">
        <ele>440</ele>
        <time>2020-01-03T07:07:41Z</time>
      </trkpt>
      <trkpt lat="61.298981556047" lon="12.245634705592">
        <ele>439.6</ele>
        <time>2020-01-03T07:07:46Z</time>
      </trkpt>
      <trkpt lat="61.298798411532" lon="12.245683991164">
        <ele>439</ele>
        <time>2020-01-03T07:07:51Z</time>
      </trkpt>
      <trkpt lat="61.298336652661" lon="12.245878618882">
        <ele>440</ele>
        <time>2020-01-03T07:08:05Z</time>
      </trkpt>
      <trkpt lat="61.2982931506" lon="12.245891778465">
        <ele>440</ele>
        <time>2020-01-03T07:08:06Z</time>
      </trkpt>
      <trkpt lat="61.29812802717" lon="12.245969730135">
        <ele>440.4</ele>
        <time>2020-01-03T07:08:10Z</time>
      </trkpt>
      <trkpt lat="61.298047393292" lon="12.246002251907">
        <ele>440.2</ele>
        <time>2020-01-03T07:08:12Z</time>
      </trkpt>
      <trkpt lat="61.297876402532" lon="12.246094117531">
        <ele>439.4</ele>
        <time>2020-01-03T07:08:16Z</time>
      </trkpt>
      <trkpt lat="61.29780197126" lon="12.246131500805">
        <ele>439.2</ele>
        <time>2020-01-03T07:08:18Z</time>
      </trkpt>
      <trkpt lat="61.297530565338" lon="12.246312717483">
        <ele>439.6</ele>
        <time>2020-01-03T07:08:25Z</time>
      </trkpt>
      <trkpt lat="61.297356640913" lon="12.24636996586">
        <ele>440</ele>
        <time>2020-01-03T07:08:31Z</time>
      </trkpt>
      <trkpt lat="61.297232253517" lon="12.246375246457">
        <ele>440.2</ele>
        <time>2020-01-03T07:08:35Z</time>
      </trkpt>
      <trkpt lat="61.297162599928" lon="12.246385975289">
        <ele>440.4</ele>
        <time>2020-01-03T07:08:37Z</time>
      </trkpt>
      <trkpt lat="61.297007534778" lon="12.246404918383">
        <ele>441</ele>
        <time>2020-01-03T07:08:42Z</time>
      </trkpt>
      <trkpt lat="61.296730345345" lon="12.246442804571">
        <ele>441.8</ele>
        <time>2020-01-03T07:08:50Z</time>
      </trkpt>
      <trkpt lat="61.296632193296" lon="12.246480690759">
        <ele>442.2</ele>
        <time>2020-01-03T07:08:53Z</time>
      </trkpt>
      <trkpt lat="61.296545356812" lon="12.24650826721">
        <ele>442.4</ele>
        <time>2020-01-03T07:08:55Z</time>
      </trkpt>
      <trkpt lat="61.296099691189" lon="12.246651346243">
        <ele>443.2</ele>
        <time>2020-01-03T07:09:08Z</time>
      </trkpt>
      <trkpt lat="61.29576097861" lon="12.246723011488">
        <ele>444.4</ele>
        <time>2020-01-03T07:09:19Z</time>
      </trkpt>
      <trkpt lat="61.295519496071" lon="12.246795263466">
        <ele>445.4</ele>
        <time>2020-01-03T07:09:27Z</time>
      </trkpt>
      <trkpt lat="61.295074920095" lon="12.246947814046">
        <ele>446.2</ele>
        <time>2020-01-03T07:09:39Z</time>
      </trkpt>
      <trkpt lat="61.294994453855" lon="12.246964494027">
        <ele>446.2</ele>
        <time>2020-01-03T07:09:41Z</time>
      </trkpt>
      <trkpt lat="61.294750875841" lon="12.247016377988">
        <ele>445.6</ele>
        <time>2020-01-03T07:09:47Z</time>
      </trkpt>
      <trkpt lat="61.294511740234" lon="12.247067172302">
        <ele>445.4</ele>
        <time>2020-01-03T07:09:53Z</time>
      </trkpt>
      <trkpt lat="61.294429597614" lon="12.247102460101">
        <ele>445.4</ele>
        <time>2020-01-03T07:09:55Z</time>
      </trkpt>
      <trkpt lat="61.294076887262" lon="12.247243778935">
        <ele>446.4</ele>
        <time>2020-01-03T07:10:06Z</time>
      </trkpt>
      <trkpt lat="61.293963815431" lon="12.247297087819">
        <ele>447.6</ele>
        <time>2020-01-03T07:10:10Z</time>
      </trkpt>
      <trkpt lat="61.293786454427" lon="12.247379481896">
        <ele>448.6</ele>
        <time>2020-01-03T07:10:17Z</time>
      </trkpt>
      <trkpt lat="61.293563914982" lon="12.247463468534">
        <ele>449.8</ele>
        <time>2020-01-03T07:10:25Z</time>
      </trkpt>
      <trkpt lat="61.293279433296" lon="12.247559273651">
        <ele>451</ele>
        <time>2020-01-03T07:10:34Z</time>
      </trkpt>
      <trkpt lat="61.29298237876" lon="12.247665639962">
        <ele>452</ele>
        <time>2020-01-03T07:10:44Z</time>
      </trkpt>
      <trkpt lat="61.29280132972" lon="12.247725151452">
        <ele>453</ele>
        <time>2020-01-03T07:10:50Z</time>
      </trkpt>
      <trkpt lat="61.292327081818" lon="12.247817771447">
        <ele>453.2</ele>
        <time>2020-01-03T07:11:02Z</time>
      </trkpt>
      <trkpt lat="61.292196407997" lon="12.247830260478">
        <ele>452.8</ele>
        <time>2020-01-03T07:11:05Z</time>
      </trkpt>
      <trkpt lat="61.29174269575" lon="12.247755661568">
        <ele>454</ele>
        <time>2020-01-03T07:11:19Z</time>
      </trkpt>
      <trkpt lat="61.291701875897" lon="12.247748620772">
        <ele>454</ele>
        <time>2020-01-03T07:11:22Z</time>
      </trkpt>
      <trkpt lat="61.291758034627" lon="12.247745770926">
        <ele>454</ele>
        <time>2020-01-03T07:11:27Z</time>
      </trkpt>
      <trkpt lat="61.291824167818" lon="12.247720541407">
        <ele>454</ele>
        <time>2020-01-03T07:11:29Z</time>
      </trkpt>
      <trkpt lat="61.291990297076" lon="12.247678631907">
        <ele>454.2</ele>
        <time>2020-01-03T07:11:33Z</time>
      </trkpt>
      <trkpt lat="61.292181823491" lon="12.247681481753">
        <ele>454</ele>
        <time>2020-01-03T07:11:37Z</time>
      </trkpt>
      <trkpt lat="61.292325153981" lon="12.247715931362">
        <ele>453.4</ele>
        <time>2020-01-03T07:11:40Z</time>
      </trkpt>
      <trkpt lat="61.292411152275" lon="12.247718026837">
        <ele>453.2</ele>
        <time>2020-01-03T07:11:42Z</time>
      </trkpt>
      <trkpt lat="61.292498491673" lon="12.247709477299">
        <ele>453</ele>
        <time>2020-01-03T07:11:44Z</time>
      </trkpt>
      <trkpt lat="61.292539479164" lon="12.247701346856">
        <ele>452.8</ele>
        <time>2020-01-03T07:11:45Z</time>
      </trkpt>
      <trkpt lat="61.292819099348" lon="12.24765155837">
        <ele>455.2</ele>
        <time>2020-01-03T07:11:52Z</time>
      </trkpt>
      <trkpt lat="61.29299998075" lon="12.247612247259">
        <ele>454.6</ele>
        <time>2020-01-03T07:11:56Z</time>
      </trkpt>
      <trkpt lat="61.293147166914" lon="12.247567487913">
        <ele>454.2</ele>
        <time>2020-01-03T07:11:59Z</time>
      </trkpt>
      <trkpt lat="61.293197123038" lon="12.247549383009">
        <ele>454.2</ele>
        <time>2020-01-03T07:12:00Z</time>
      </trkpt>
      <trkpt lat="61.293408011642" lon="12.247465228733">
        <ele>453</ele>
        <time>2020-01-03T07:12:04Z</time>
      </trkpt>
      <trkpt lat="61.293685033437" lon="12.247360454983">
        <ele>452.2</ele>
        <time>2020-01-03T07:12:09Z</time>
      </trkpt>
      <trkpt lat="61.293803302046" lon="12.247332878532">
        <ele>451.8</ele>
        <time>2020-01-03T07:12:11Z</time>
      </trkpt>
      <trkpt lat="61.294060458738" lon="12.247242102555">
        <ele>450.6</ele>
        <time>2020-01-03T07:12:15Z</time>
      </trkpt>
      <trkpt lat="61.294456335875" lon="12.247096173676">
        <ele>449.4</ele>
        <time>2020-01-03T07:12:21Z</time>
      </trkpt>
      <trkpt lat="61.294746349615" lon="12.247005565337">
        <ele>448.4</ele>
        <time>2020-01-03T07:12:26Z</time>
      </trkpt>
      <trkpt lat="61.294845423673" lon="12.24696843352">
        <ele>447.8</ele>
        <time>2020-01-03T07:12:28Z</time>
      </trkpt>
      <trkpt lat="61.295125211495" lon="12.246874388602">
        <ele>447.8</ele>
        <time>2020-01-03T07:12:34Z</time>
      </trkpt>
      <trkpt lat="61.295260495361" lon="12.246839687536">
        <ele>447.6</ele>
        <time>2020-01-03T07:12:37Z</time>
      </trkpt>
      <trkpt lat="61.295340961601" lon="12.246804483556">
        <ele>447.4</ele>
        <time>2020-01-03T07:12:39Z</time>
      </trkpt>
      <trkpt lat="61.295470713413" lon="12.246746899903">
        <ele>448</ele>
        <time>2020-01-03T07:12:42Z</time>
      </trkpt>
      <trkpt lat="61.295559729191" lon="12.246725861334">
        <ele>448</ele>
        <time>2020-01-03T07:12:44Z</time>
      </trkpt>
      <trkpt lat="61.295655785765" lon="12.246693591019">
        <ele>448.4</ele>
        <time>2020-01-03T07:12:46Z</time>
      </trkpt>
      <trkpt lat="61.295820322462" lon="12.246659225229">
        <ele>447.2</ele>
        <time>2020-01-03T07:12:49Z</time>
      </trkpt>
      <trkpt lat="61.295996593819" lon="12.24660633544">
        <ele>446.2</ele>
        <time>2020-01-03T07:12:52Z</time>
      </trkpt>
      <trkpt lat="61.296113102229" lon="12.24657867517">
        <ele>445.8</ele>
        <time>2020-01-03T07:12:54Z</time>
      </trkpt>
      <trkpt lat="61.296314854562" lon="12.246539783154">
        <ele>445.2</ele>
        <time>2020-01-03T07:12:58Z</time>
      </trkpt>
      <trkpt lat="61.296481402915" lon="12.246502232242">
        <ele>444.8</ele>
        <time>2020-01-03T07:13:01Z</time>
      </trkpt>
      <trkpt lat="61.296584416466" lon="12.246463675502">
        <ele>444.8</ele>
        <time>2020-01-03T07:13:03Z</time>
      </trkpt>
      <trkpt lat="61.296687597655" lon="12.246432578653">
        <ele>445.2</ele>
        <time>2020-01-03T07:13:05Z</time>
      </trkpt>
      <trkpt lat="61.296792874319" lon="12.246410450437">
        <ele>445.6</ele>
        <time>2020-01-03T07:13:07Z</time>
      </trkpt>
      <trkpt lat="61.296995045747" lon="12.246371726059">
        <ele>445.2</ele>
        <time>2020-01-03T07:13:11Z</time>
      </trkpt>
      <trkpt lat="61.297151703458" lon="12.246332750224">
        <ele>443.4</ele>
        <time>2020-01-03T07:13:14Z</time>
      </trkpt>
      <trkpt lat="61.297615390166" lon="12.246181540748">
        <ele>442</ele>
        <time>2020-01-03T07:13:22Z</time>
      </trkpt>
      <trkpt lat="61.297788476401" lon="12.246089758943">
        <ele>441.2</ele>
        <time>2020-01-03T07:13:25Z</time>
      </trkpt>
      <trkpt lat="61.297901464413" lon="12.246050280194">
        <ele>441</ele>
        <time>2020-01-03T07:13:27Z</time>
      </trkpt>
      <trkpt lat="61.297957204048" lon="12.246016836413">
        <ele>441</ele>
        <time>2020-01-03T07:13:28Z</time>
      </trkpt>
      <trkpt lat="61.298053847355" lon="12.245969143402">
        <ele>440.6</ele>
        <time>2020-01-03T07:13:30Z</time>
      </trkpt>
      <trkpt lat="61.29814479097" lon="12.245928994101">
        <ele>441</ele>
        <time>2020-01-03T07:13:32Z</time>
      </trkpt>
      <trkpt lat="61.298236405137" lon="12.245852215897">
        <ele>441</ele>
        <time>2020-01-03T07:13:34Z</time>
      </trkpt>
      <trkpt lat="61.298370431718" lon="12.245792285312">
        <ele>441.2</ele>
        <time>2020-01-03T07:13:37Z</time>
      </trkpt>
      <trkpt lat="61.298545864885" lon="12.24571701585">
        <ele>441.6</ele>
        <time>2020-01-03T07:13:41Z</time>
      </trkpt>
      <trkpt lat="61.298633120464" lon="12.245699665317">
        <ele>441.8</ele>
        <time>2020-01-03T07:13:43Z</time>
      </trkpt>
      <trkpt lat="61.298726913925" lon="12.245663623147">
        <ele>441.8</ele>
        <time>2020-01-03T07:13:45Z</time>
      </trkpt>
      <trkpt lat="61.298827832001" lon="12.245639734732">
        <ele>441.8</ele>
        <time>2020-01-03T07:13:47Z</time>
      </trkpt>
      <trkpt lat="61.299009719231" lon="12.24560218382">
        <ele>441</ele>
        <time>2020-01-03T07:13:51Z</time>
      </trkpt>
      <trkpt lat="61.299105775805" lon="12.245582653993">
        <ele>440.8</ele>
        <time>2020-01-03T07:13:53Z</time>
      </trkpt>
      <trkpt lat="61.299192025556" lon="12.245554490809">
        <ele>440.6</ele>
        <time>2020-01-03T07:13:55Z</time>
      </trkpt>
      <trkpt lat="61.299287076302" lon="12.245530853851">
        <ele>441</ele>
        <time>2020-01-03T07:13:57Z</time>
      </trkpt>
      <trkpt lat="61.299411882793" lon="12.245499337907">
        <ele>441.4</ele>
        <time>2020-01-03T07:14:00Z</time>
      </trkpt>
      <trkpt lat="61.299759228729" lon="12.245384505877">
        <ele>440.2</ele>
        <time>2020-01-03T07:14:08Z</time>
      </trkpt>
      <trkpt lat="61.299796947279" lon="12.245374112321">
        <ele>440</ele>
        <time>2020-01-03T07:14:09Z</time>
      </trkpt>
      <trkpt lat="61.2998018926" lon="12.245393139234">
        <ele>439</ele>
        <time>2020-01-03T07:14:19Z</time>
      </trkpt>
      <trkpt lat="61.299743638395" lon="12.24543203125">
        <ele>439.6</ele>
        <time>2020-01-03T07:14:21Z</time>
      </trkpt>
      <trkpt lat="61.299643726147" lon="12.245471007085">
        <ele>441.2</ele>
        <time>2020-01-03T07:14:24Z</time>
      </trkpt>
      <trkpt lat="61.299586310132" lon="12.245478299338">
        <ele>439.8</ele>
        <time>2020-01-03T07:14:26Z</time>
      </trkpt>
      <trkpt lat="61.299478686536" lon="12.245504534685">
        <ele>440.8</ele>
        <time>2020-01-03T07:14:29Z</time>
      </trkpt>
      <trkpt lat="61.2990223759" lon="12.245616852145">
        <ele>440.4</ele>
        <time>2020-01-03T07:14:41Z</time>
      </trkpt>
      <trkpt lat="61.298942161117" lon="12.245621210733">
        <ele>440.4</ele>
        <time>2020-01-03T07:14:43Z</time>
      </trkpt>
      <trkpt lat="61.298851468959" lon="12.245647948994">
        <ele>440.6</ele>
        <time>2020-01-03T07:14:45Z</time>
      </trkpt>
      <trkpt lat="61.298722890613" lon="12.245700168231">
        <ele>439.8</ele>
        <time>2020-01-03T07:14:48Z</time>
      </trkpt>
      <trkpt lat="61.298646950599" lon="12.245717937859">
        <ele>439.8</ele>
        <time>2020-01-03T07:14:50Z</time>
      </trkpt>
      <trkpt lat="61.298248475073" lon="12.245889096257">
        <ele>440.2</ele>
        <time>2020-01-03T07:15:01Z</time>
      </trkpt>
      <trkpt lat="61.298163650245" lon="12.245941483132">
        <ele>440.8</ele>
        <time>2020-01-03T07:15:03Z</time>
      </trkpt>
      <trkpt lat="61.298112855931" lon="12.245967718479">
        <ele>441</ele>
        <time>2020-01-03T07:15:04Z</time>
      </trkpt>
      <trkpt lat="61.297891825228" lon="12.246085065079">
        <ele>440</ele>
        <time>2020-01-03T07:15:09Z</time>
      </trkpt>
      <trkpt lat="61.297847820253" lon="12.246099062852">
        <ele>439.8</ele>
        <time>2020-01-03T07:15:10Z</time>
      </trkpt>
      <trkpt lat="61.297797445034" lon="12.246121610163">
        <ele>439.6</ele>
        <time>2020-01-03T07:15:11Z</time>
      </trkpt>
      <trkpt lat="61.297631231957" lon="12.24621154795">
        <ele>439.6</ele>
        <time>2020-01-03T07:15:15Z</time>
      </trkpt>
      <trkpt lat="61.29739796368" lon="12.246311711655">
        <ele>440.8</ele>
        <time>2020-01-03T07:15:22Z</time>
      </trkpt>
      <trkpt lat="61.297029746813" lon="12.246450683557">
        <ele>441.6</ele>
        <time>2020-01-03T07:15:33Z</time>
      </trkpt>
      <trkpt lat="61.296997560317" lon="12.246464262235">
        <ele>442</ele>
        <time>2020-01-03T07:15:34Z</time>
      </trkpt>
      <trkpt lat="61.296790024473" lon="12.246486977184">
        <ele>442.2</ele>
        <time>2020-01-03T07:15:41Z</time>
      </trkpt>
      <trkpt lat="61.296718945961" lon="12.246521007698">
        <ele>442.4</ele>
        <time>2020-01-03T07:15:43Z</time>
      </trkpt>
      <trkpt lat="61.296474948852" lon="12.246574568039">
        <ele>443</ele>
        <time>2020-01-03T07:15:50Z</time>
      </trkpt>
      <trkpt lat="61.296338575339" lon="12.246613460055">
        <ele>443</ele>
        <time>2020-01-03T07:15:54Z</time>
      </trkpt>
      <trkpt lat="61.296211589554" lon="12.246652771166">
        <ele>443.2</ele>
        <time>2020-01-03T07:15:57Z</time>
      </trkpt>
      <trkpt lat="61.296147048924" lon="12.246679677065">
        <ele>443.2</ele>
        <time>2020-01-03T07:15:59Z</time>
      </trkpt>
      <trkpt lat="61.295968682092" lon="12.246696524684">
        <ele>444</ele>
        <time>2020-01-03T07:16:04Z</time>
      </trkpt>
      <trkpt lat="61.295648912607" lon="12.24686533615">
        <ele>445.2</ele>
        <time>2020-01-03T07:16:14Z</time>
      </trkpt>
      <trkpt lat="61.2954013951" lon="12.24692652402">
        <ele>446.2</ele>
        <time>2020-01-03T07:16:22Z</time>
      </trkpt>
      <trkpt lat="61.295267871433" lon="12.246948149322">
        <ele>446.2</ele>
        <time>2020-01-03T07:16:25Z</time>
      </trkpt>
      <trkpt lat="61.29509713213" lon="12.246988214804">
        <ele>446.2</ele>
        <time>2020-01-03T07:16:29Z</time>
      </trkpt>
      <trkpt lat="61.295030496025" lon="12.246996764342">
        <ele>446</ele>
        <time>2020-01-03T07:16:31Z</time>
      </trkpt>
      <trkpt lat="61.294886411164" lon="12.24704638519">
        <ele>445.8</ele>
        <time>2020-01-03T07:16:34Z</time>
      </trkpt>
      <trkpt lat="61.294805777286" lon="12.247063232809">
        <ele>445.6</ele>
        <time>2020-01-03T07:16:36Z</time>
      </trkpt>
      <trkpt lat="61.294651047412" lon="12.247098101513">
        <ele>445.8</ele>
        <time>2020-01-03T07:16:40Z</time>
      </trkpt>
      <trkpt lat="61.294188282713" lon="12.247210167516">
        <ele>446.4</ele>
        <time>2020-01-03T07:16:52Z</time>
      </trkpt>
      <trkpt lat="61.293994493185" lon="12.24735232454">
        <ele>447</ele>
        <time>2020-01-03T07:16:58Z</time>
      </trkpt>
      <trkpt lat="61.293970269494" lon="12.247350815798">
        <ele>447.2</ele>
        <time>2020-01-03T07:16:59Z</time>
      </trkpt>
      <trkpt lat="61.293724512186" lon="12.247421475215">
        <ele>448.4</ele>
        <time>2020-01-03T07:17:08Z</time>
      </trkpt>
      <trkpt lat="61.293613368192" lon="12.247440669766">
        <ele>449.6</ele>
        <time>2020-01-03T07:17:12Z</time>
      </trkpt>
      <trkpt lat="61.293454447368" lon="12.247501187084">
        <ele>450.6</ele>
        <time>2020-01-03T07:17:17Z</time>
      </trkpt>
      <trkpt lat="61.293081117542" lon="12.247641835366">
        <ele>451.4</ele>
        <time>2020-01-03T07:17:28Z</time>
      </trkpt>
      <trkpt lat="61.292942648554" lon="12.247678548088">
        <ele>452</ele>
        <time>2020-01-03T07:17:32Z</time>
      </trkpt>
      <trkpt lat="61.292573258221" lon="12.247774688481">
        <ele>451</ele>
        <time>2020-01-03T07:17:42Z</time>
      </trkpt>
      <trkpt lat="61.29248784666" lon="12.247784579123">
        <ele>451.2</ele>
        <time>2020-01-03T07:17:44Z</time>
      </trkpt>
      <trkpt lat="61.292313335502" lon="12.247799750362">
        <ele>451.6</ele>
        <time>2020-01-03T07:17:48Z</time>
      </trkpt>
      <trkpt lat="61.29223638966" lon="12.247782986562">
        <ele>451.4</ele>
        <time>2020-01-03T07:17:50Z</time>
      </trkpt>
      <trkpt lat="61.291776726264" lon="12.247756583577">
        <ele>451.6</ele>
        <time>2020-01-03T07:18:03Z</time>
      </trkpt>
      <trkpt lat="61.291591402455" lon="12.247839229111">
        <ele>452.2</ele>
        <time>2020-01-03T07:18:08Z</time>
      </trkpt>
      <trkpt lat="61.291526191273" lon="12.247901925723">
        <ele>452.6</ele>
        <time>2020-01-03T07:18:10Z</time>
      </trkpt>
      <trkpt lat="61.291489897646" lon="12.247927155242">
        <ele>453</ele>
        <time>2020-01-03T07:18:11Z</time>
      </trkpt>
      <trkpt lat="61.291420160238" lon="12.247985912361">
        <ele>453.2</ele>
        <time>2020-01-03T07:18:13Z</time>
      </trkpt>
      <trkpt lat="61.291368108639" lon="12.248013321174">
        <ele>453.2</ele>
        <time>2020-01-03T07:18:15Z</time>
      </trkpt>
      <trkpt lat="61.290913809659" lon="12.248387153914">
        <ele>453.4</ele>
        <time>2020-01-03T07:18:28Z</time>
      </trkpt>
      <trkpt lat="61.290800402552" lon="12.248464435032">
        <ele>453.6</ele>
        <time>2020-01-03T07:18:31Z</time>
      </trkpt>
      <trkpt lat="61.29060611011" lon="12.248569879334">
        <ele>453.6</ele>
        <time>2020-01-03T07:18:36Z</time>
      </trkpt>
      <trkpt lat="61.290313246524" lon="12.248775822617">
        <ele>453.2</ele>
        <time>2020-01-03T07:18:44Z</time>
      </trkpt>
      <trkpt lat="61.290235378673" lon="12.248833238632">
        <ele>453</ele>
        <time>2020-01-03T07:18:46Z</time>
      </trkpt>
      <trkpt lat="61.290051815063" lon="12.248982520271">
        <ele>454</ele>
        <time>2020-01-03T07:18:51Z</time>
      </trkpt>
      <trkpt lat="61.289989621365" lon="12.249052676774">
        <ele>454.2</ele>
        <time>2020-01-03T07:18:53Z</time>
      </trkpt>
      <trkpt lat="61.289824246478" lon="12.249207406648">
        <ele>453.8</ele>
        <time>2020-01-03T07:18:58Z</time>
      </trkpt>
      <trkpt lat="61.289752665052" lon="12.249267001957">
        <ele>453.8</ele>
        <time>2020-01-03T07:19:00Z</time>
      </trkpt>
      <trkpt lat="61.289546135036" lon="12.249432376844">
        <ele>454.2</ele>
        <time>2020-01-03T07:19:05Z</time>
      </trkpt>
      <trkpt lat="61.289418646337" lon="12.24952826578">
        <ele>454.4</ele>
        <time>2020-01-03T07:19:08Z</time>
      </trkpt>
      <trkpt lat="61.289346142902" lon="12.249592387315">
        <ele>454.2</ele>
        <time>2020-01-03T07:19:10Z</time>
      </trkpt>
      <trkpt lat="61.289268023594" lon="12.249663801103">
        <ele>454.4</ele>
        <time>2020-01-03T07:19:12Z</time>
      </trkpt>
      <trkpt lat="61.289203063869" lon="12.249700597644">
        <ele>454.2</ele>
        <time>2020-01-03T07:19:14Z</time>
      </trkpt>
      <trkpt lat="61.28906216413" lon="12.249835294777">
        <ele>454.2</ele>
        <time>2020-01-03T07:19:18Z</time>
      </trkpt>
      <trkpt lat="61.288986559392" lon="12.24989120205">
        <ele>453.8</ele>
        <time>2020-01-03T07:19:20Z</time>
      </trkpt>
      <trkpt lat="61.2889054226" lon="12.249960352725">
        <ele>453.6</ele>
        <time>2020-01-03T07:19:22Z</time>
      </trkpt>
      <trkpt lat="61.288752117649" lon="12.250091864736">
        <ele>453.2</ele>
        <time>2020-01-03T07:19:26Z</time>
      </trkpt>
      <trkpt lat="61.288677602558" lon="12.250170822234">
        <ele>453</ele>
        <time>2020-01-03T07:19:28Z</time>
      </trkpt>
      <trkpt lat="61.288527818005" lon="12.250336532397">
        <ele>453.4</ele>
        <time>2020-01-03T07:19:32Z</time>
      </trkpt>
      <trkpt lat="61.288450955982" lon="12.250425631994">
        <ele>453.4</ele>
        <time>2020-01-03T07:19:34Z</time>
      </trkpt>
      <trkpt lat="61.288325311301" lon="12.250550606123">
        <ele>453</ele>
        <time>2020-01-03T07:19:37Z</time>
      </trkpt>
      <trkpt lat="61.288258842834" lon="12.250655966606">
        <ele>452.6</ele>
        <time>2020-01-03T07:19:39Z</time>
      </trkpt>
      <trkpt lat="61.28817200635" lon="12.250811367032">
        <ele>452.4</ele>
        <time>2020-01-03T07:19:41Z</time>
      </trkpt>
      <trkpt lat="61.288097239802" lon="12.250946399441">
        <ele>452.2</ele>
        <time>2020-01-03T07:19:43Z</time>
      </trkpt>
      <trkpt lat="61.288060275623" lon="12.251019573428">
        <ele>452</ele>
        <time>2020-01-03T07:19:44Z</time>
      </trkpt>
      <trkpt lat="61.288025909833" lon="12.251088556465">
        <ele>452</ele>
        <time>2020-01-03T07:19:45Z</time>
      </trkpt>
      <trkpt lat="61.287957345891" lon="12.251227109272">
        <ele>451.8</ele>
        <time>2020-01-03T07:19:47Z</time>
      </trkpt>
      <trkpt lat="61.287778140869" lon="12.251536233744">
        <ele>451.2</ele>
        <time>2020-01-03T07:19:52Z</time>
      </trkpt>
      <trkpt lat="61.28773698574" lon="12.251608820998">
        <ele>451</ele>
        <time>2020-01-03T07:19:53Z</time>
      </trkpt>
      <trkpt lat="61.287529282258" lon="12.251929009578">
        <ele>450.4</ele>
        <time>2020-01-03T07:19:58Z</time>
      </trkpt>
      <trkpt lat="61.287445379439" lon="12.25202691017">
        <ele>450</ele>
        <time>2020-01-03T07:20:00Z</time>
      </trkpt>
      <trkpt lat="61.28739919517" lon="12.252083739452">
        <ele>450</ele>
        <time>2020-01-03T07:20:01Z</time>
      </trkpt>
      <trkpt lat="61.287224432555" lon="12.25231608572">
        <ele>448.8</ele>
        <time>2020-01-03T07:20:05Z</time>
      </trkpt>
      <trkpt lat="61.287182020141" lon="12.252376267762">
        <ele>448.6</ele>
        <time>2020-01-03T07:20:06Z</time>
      </trkpt>
      <trkpt lat="61.287018321634" lon="12.25255916082">
        <ele>448.6</ele>
        <time>2020-01-03T07:20:10Z</time>
      </trkpt>
      <trkpt lat="61.286768121919" lon="12.252755800194">
        <ele>447.6</ele>
        <time>2020-01-03T07:20:16Z</time>
      </trkpt>
      <trkpt lat="61.286673657906" lon="12.252802738834">
        <ele>447.4</ele>
        <time>2020-01-03T07:20:18Z</time>
      </trkpt>
      <trkpt lat="61.286589252173" lon="12.252836434072">
        <ele>447.2</ele>
        <time>2020-01-03T07:20:20Z</time>
      </trkpt>
      <trkpt lat="61.286124224361" lon="12.2530134598">
        <ele>448.6</ele>
        <time>2020-01-03T07:20:32Z</time>
      </trkpt>
      <trkpt lat="61.285999166413" lon="12.253088813081">
        <ele>449.2</ele>
        <time>2020-01-03T07:20:35Z</time>
      </trkpt>
      <trkpt lat="61.285900427631" lon="12.253168273493">
        <ele>448.6</ele>
        <time>2020-01-03T07:20:37Z</time>
      </trkpt>
      <trkpt lat="61.285470100885" lon="12.253473709929">
        <ele>448.8</ele>
        <time>2020-01-03T07:20:48Z</time>
      </trkpt>
      <trkpt lat="61.285001049761" lon="12.253794317604">
        <ele>448.6</ele>
        <time>2020-01-03T07:21:00Z</time>
      </trkpt>
      <trkpt lat="61.284956458053" lon="12.253830443593">
        <ele>448.8</ele>
        <time>2020-01-03T07:21:01Z</time>
      </trkpt>
      <trkpt lat="61.284720842844" lon="12.253967152382">
        <ele>449.2</ele>
        <time>2020-01-03T07:21:07Z</time>
      </trkpt>
      <trkpt lat="61.284582541494" lon="12.253991878987">
        <ele>449.4</ele>
        <time>2020-01-03T07:21:11Z</time>
      </trkpt>
      <trkpt lat="61.28446804474" lon="12.254077625824">
        <ele>449.6</ele>
        <time>2020-01-03T07:21:14Z</time>
      </trkpt>
      <trkpt lat="61.284018439624" lon="12.254392869083">
        <ele>449.4</ele>
        <time>2020-01-03T07:21:25Z</time>
      </trkpt>
      <trkpt lat="61.283939565945" lon="12.25443922099">
        <ele>449.2</ele>
        <time>2020-01-03T07:21:27Z</time>
      </trkpt>
      <trkpt lat="61.283781483311" lon="12.254549526794">
        <ele>448.6</ele>
        <time>2020-01-03T07:21:31Z</time>
      </trkpt>
      <trkpt lat="61.283472694115" lon="12.254799139776">
        <ele>448.4</ele>
        <time>2020-01-03T07:21:38Z</time>
      </trkpt>
      <trkpt lat="61.283043457016" lon="12.255112036103">
        <ele>448.8</ele>
        <time>2020-01-03T07:21:50Z</time>
      </trkpt>
      <trkpt lat="61.282767441049" lon="12.255251510919">
        <ele>449.6</ele>
        <time>2020-01-03T07:21:58Z</time>
      </trkpt>
      <trkpt lat="61.282646071137" lon="12.255322924707">
        <ele>450.8</ele>
        <time>2020-01-03T07:22:02Z</time>
      </trkpt>
      <trkpt lat="61.282211050527" lon="12.255640179622">
        <ele>451</ele>
        <time>2020-01-03T07:22:14Z</time>
      </trkpt>
      <trkpt lat="61.281760774859" lon="12.255966822265">
        <ele>450.8</ele>
        <time>2020-01-03T07:22:26Z</time>
      </trkpt>
      <trkpt lat="61.281321647118" lon="12.256409302766">
        <ele>449.8</ele>
        <time>2020-01-03T07:22:38Z</time>
      </trkpt>
      <trkpt lat="61.281221399594" lon="12.256567972133">
        <ele>449.8</ele>
        <time>2020-01-03T07:22:41Z</time>
      </trkpt>
      <trkpt lat="61.281188542546" lon="12.256623460311">
        <ele>449.8</ele>
        <time>2020-01-03T07:22:42Z</time>
      </trkpt>
      <trkpt lat="61.280891152734" lon="12.257198207194">
        <ele>450.8</ele>
        <time>2020-01-03T07:22:53Z</time>
      </trkpt>
      <trkpt lat="61.280468704974" lon="12.257574638323">
        <ele>451</ele>
        <time>2020-01-03T07:23:05Z</time>
      </trkpt>
      <trkpt lat="61.280037037124" lon="12.257915278739">
        <ele>451.4</ele>
        <time>2020-01-03T07:23:17Z</time>
      </trkpt>
      <trkpt lat="61.279964868965" lon="12.2579839265">
        <ele>451.8</ele>
        <time>2020-01-03T07:23:19Z</time>
      </trkpt>
      <trkpt lat="61.279716932363" lon="12.258173608897">
        <ele>452.8</ele>
        <time>2020-01-03T07:23:27Z</time>
      </trkpt>
      <trkpt lat="61.279485927199" lon="12.258347365684">
        <ele>454</ele>
        <time>2020-01-03T07:23:35Z</time>
      </trkpt>
      <trkpt lat="61.279245115212" lon="12.258549285655">
        <ele>455</ele>
        <time>2020-01-03T07:23:42Z</time>
      </trkpt>
      <trkpt lat="61.279097845229" lon="12.258679037467">
        <ele>455</ele>
        <time>2020-01-03T07:23:46Z</time>
      </trkpt>
      <trkpt lat="61.279022491948" lon="12.258745673572">
        <ele>454.8</ele>
        <time>2020-01-03T07:23:48Z</time>
      </trkpt>
      <trkpt lat="61.278791989698" lon="12.258937619082">
        <ele>453.8</ele>
        <time>2020-01-03T07:23:54Z</time>
      </trkpt>
      <trkpt lat="61.278615215427" lon="12.259077345355">
        <ele>454</ele>
        <time>2020-01-03T07:23:58Z</time>
      </trkpt>
      <trkpt lat="61.278407679583" lon="12.259234338342">
        <ele>452.8</ele>
        <time>2020-01-03T07:24:03Z</time>
      </trkpt>
      <trkpt lat="61.278058154353" lon="12.259459811452">
        <ele>454</ele>
        <time>2020-01-03T07:24:12Z</time>
      </trkpt>
      <trkpt lat="61.277611818178" lon="12.259704227656">
        <ele>454.8</ele>
        <time>2020-01-03T07:24:25Z</time>
      </trkpt>
      <trkpt lat="61.277300262955" lon="12.2598614721">
        <ele>455.2</ele>
        <time>2020-01-03T07:24:34Z</time>
      </trkpt>
      <trkpt lat="61.276830792736" lon="12.26005341761">
        <ele>455.8</ele>
        <time>2020-01-03T07:24:47Z</time>
      </trkpt>
      <trkpt lat="61.276449416286" lon="12.26022692294">
        <ele>456.4</ele>
        <time>2020-01-03T07:24:58Z</time>
      </trkpt>
      <trkpt lat="61.276050018751" lon="12.260389112705">
        <ele>456</ele>
        <time>2020-01-03T07:25:08Z</time>
      </trkpt>
      <trkpt lat="61.27593443235" lon="12.26042138302">
        <ele>455.6</ele>
        <time>2020-01-03T07:25:11Z</time>
      </trkpt>
      <trkpt lat="61.275485078691" lon="12.260666302138">
        <ele>457.2</ele>
        <time>2020-01-03T07:25:25Z</time>
      </trkpt>
      <trkpt lat="61.275455909679" lon="12.260689017087">
        <ele>457.6</ele>
        <time>2020-01-03T07:25:26Z</time>
      </trkpt>
      <trkpt lat="61.275349794825" lon="12.260750707871">
        <ele>458.6</ele>
        <time>2020-01-03T07:25:30Z</time>
      </trkpt>
      <trkpt lat="61.274936734793" lon="12.260931337816">
        <ele>459.8</ele>
        <time>2020-01-03T07:25:43Z</time>
      </trkpt>
      <trkpt lat="61.274520489639" lon="12.261042314172">
        <ele>460</ele>
        <time>2020-01-03T07:25:54Z</time>
      </trkpt>
      <trkpt lat="61.274225614397" lon="12.261173826183">
        <ele>459.8</ele>
        <time>2020-01-03T07:26:01Z</time>
      </trkpt>
      <trkpt lat="61.274152105134" lon="12.261193858924">
        <ele>459.8</ele>
        <time>2020-01-03T07:26:03Z</time>
      </trkpt>
      <trkpt lat="61.273688502245" lon="12.261378596">
        <ele>460.8</ele>
        <time>2020-01-03T07:26:17Z</time>
      </trkpt>
      <trkpt lat="61.273317016437" lon="12.261493763306">
        <ele>461.8</ele>
        <time>2020-01-03T07:26:30Z</time>
      </trkpt>
      <trkpt lat="61.273170249368" lon="12.261570038596">
        <ele>463</ele>
        <time>2020-01-03T07:26:35Z</time>
      </trkpt>
      <trkpt lat="61.27304519142" lon="12.261602308911">
        <ele>464.2</ele>
        <time>2020-01-03T07:26:39Z</time>
      </trkpt>
      <trkpt lat="61.272751154368" lon="12.261721750986">
        <ele>465.2</ele>
        <time>2020-01-03T07:26:49Z</time>
      </trkpt>
      <trkpt lat="61.27258670149" lon="12.26178511815">
        <ele>466.2</ele>
        <time>2020-01-03T07:26:55Z</time>
      </trkpt>
      <trkpt lat="61.272379752379" lon="12.261878743973">
        <ele>467.2</ele>
        <time>2020-01-03T07:27:03Z</time>
      </trkpt>
      <trkpt lat="61.272135503813" lon="12.262042358661">
        <ele>468.4</ele>
        <time>2020-01-03T07:27:11Z</time>
      </trkpt>
      <trkpt lat="61.272096276521" lon="12.262074042243">
        <ele>468.2</ele>
        <time>2020-01-03T07:27:12Z</time>
      </trkpt>
      <trkpt lat="61.272037603221" lon="12.262125004195">
        <ele>468.4</ele>
        <time>2020-01-03T07:27:14Z</time>
      </trkpt>
      <trkpt lat="61.271585818811" lon="12.26219080211">
        <ele>469</ele>
        <time>2020-01-03T07:27:28Z</time>
      </trkpt>
      <trkpt lat="61.27137635513" lon="12.262232292515">
        <ele>469.6</ele>
        <time>2020-01-03T07:27:34Z</time>
      </trkpt>
      <trkpt lat="61.27090277778" lon="12.262338742645">
        <ele>470</ele>
        <time>2020-01-03T07:27:47Z</time>
      </trkpt>
      <trkpt lat="61.27070245037" lon="12.262473439778">
        <ele>470.8</ele>
        <time>2020-01-03T07:27:54Z</time>
      </trkpt>
      <trkpt lat="61.270537662216" lon="12.262487018456">
        <ele>471.8</ele>
        <time>2020-01-03T07:28:00Z</time>
      </trkpt>
      <trkpt lat="61.270357870461" lon="12.262476876357">
        <ele>471.8</ele>
        <time>2020-01-03T07:28:05Z</time>
      </trkpt>
      <trkpt lat="61.269876414125" lon="12.262487018456">
        <ele>471.6</ele>
        <time>2020-01-03T07:28:18Z</time>
      </trkpt>
      <trkpt lat="61.269509706" lon="12.26267611412">
        <ele>473</ele>
        <time>2020-01-03T07:28:31Z</time>
      </trkpt>
      <trkpt lat="61.269359334714" lon="12.262726154063">
        <ele>474</ele>
        <time>2020-01-03T07:28:36Z</time>
      </trkpt>
      <trkpt lat="61.268899922775" lon="12.262839477351">
        <ele>475.2</ele>
        <time>2020-01-03T07:28:50Z</time>
      </trkpt>
      <trkpt lat="61.268685681411" lon="12.262782061336">
        <ele>476.4</ele>
        <time>2020-01-03T07:28:57Z</time>
      </trkpt>
      <trkpt lat="61.268444869424" lon="12.26271215629">
        <ele>477.6</ele>
        <time>2020-01-03T07:29:06Z</time>
      </trkpt>
      <trkpt lat="61.268318721829" lon="12.262657003388">
        <ele>478.6</ele>
        <time>2020-01-03T07:29:11Z</time>
      </trkpt>
      <trkpt lat="61.267837768407" lon="12.262468075362">
        <ele>479.6</ele>
        <time>2020-01-03T07:29:25Z</time>
      </trkpt>
      <trkpt lat="61.267360000107" lon="12.262303035751">
        <ele>480</ele>
        <time>2020-01-03T07:29:37Z</time>
      </trkpt>
      <trkpt lat="61.267015923112" lon="12.26237268934">
        <ele>478.8</ele>
        <time>2020-01-03T07:29:49Z</time>
      </trkpt>
      <trkpt lat="61.267046097952" lon="12.262348633287">
        <ele>478.6</ele>
        <time>2020-01-03T07:29:51Z</time>
      </trkpt>
      <trkpt lat="61.267105357985" lon="12.262325331605">
        <ele>478.8</ele>
        <time>2020-01-03T07:29:53Z</time>
      </trkpt>
      <trkpt lat="61.267311636544" lon="12.262293983299">
        <ele>479.6</ele>
        <time>2020-01-03T07:29:59Z</time>
      </trkpt>
      <trkpt lat="61.267776915813" lon="12.262400852524">
        <ele>480.2</ele>
        <time>2020-01-03T07:30:10Z</time>
      </trkpt>
      <trkpt lat="61.268079334765" lon="12.26249674146">
        <ele>480.8</ele>
        <time>2020-01-03T07:30:17Z</time>
      </trkpt>
      <trkpt lat="61.268250325525" lon="12.262550888534">
        <ele>481</ele>
        <time>2020-01-03T07:30:21Z</time>
      </trkpt>
      <trkpt lat="61.268663301738" lon="12.262629510756">
        <ele>479.4</ele>
        <time>2020-01-03T07:30:29Z</time>
      </trkpt>
      <trkpt lat="61.268849128461" lon="12.262663122175">
        <ele>478</ele>
        <time>2020-01-03T07:30:32Z</time>
      </trkpt>
      <trkpt lat="61.269032608252" lon="12.262696482137">
        <ele>477.4</ele>
        <time>2020-01-03T07:30:35Z</time>
      </trkpt>
      <trkpt lat="61.269227655065" lon="12.26269036335">
        <ele>477</ele>
        <time>2020-01-03T07:30:38Z</time>
      </trkpt>
      <trkpt lat="61.269573073164" lon="12.262604784151">
        <ele>476</ele>
        <time>2020-01-03T07:30:44Z</time>
      </trkpt>
      <trkpt lat="61.269629064256" lon="12.262580895736">
        <ele>475.4</ele>
        <time>2020-01-03T07:30:45Z</time>
      </trkpt>
      <trkpt lat="61.269885131301" lon="12.262468159181">
        <ele>473.8</ele>
        <time>2020-01-03T07:30:49Z</time>
      </trkpt>
      <trkpt lat="61.270024270841" lon="12.262433290477">
        <ele>472.4</ele>
        <time>2020-01-03T07:30:51Z</time>
      </trkpt>
      <trkpt lat="61.270207247718" lon="12.262391716253">
        <ele>471.2</ele>
        <time>2020-01-03T07:30:54Z</time>
      </trkpt>
      <trkpt lat="61.270267345941" lon="12.262387022389">
        <ele>471</ele>
        <time>2020-01-03T07:30:55Z</time>
      </trkpt>
      <trkpt lat="61.270424422747" lon="12.262376377376">
        <ele>471.4</ele>
        <time>2020-01-03T07:30:58Z</time>
      </trkpt>
      <trkpt lat="61.270616284438" lon="12.262342263043">
        <ele>472.4</ele>
        <time>2020-01-03T07:31:02Z</time>
      </trkpt>
      <trkpt lat="61.271121126275" lon="12.262250984152">
        <ele>471.4</ele>
        <time>2020-01-03T07:31:11Z</time>
      </trkpt>
      <trkpt lat="61.271183152335" lon="12.262228185384">
        <ele>471.2</ele>
        <time>2020-01-03T07:31:12Z</time>
      </trkpt>
      <trkpt lat="61.271346431747" lon="12.262172110473">
        <ele>470</ele>
        <time>2020-01-03T07:31:15Z</time>
      </trkpt>
      <trkpt lat="61.271459084483" lon="12.26213715795">
        <ele>468.8</ele>
        <time>2020-01-03T07:31:17Z</time>
      </trkpt>
      <trkpt lat="61.27174012959" lon="12.262031713648">
        <ele>469.6</ele>
        <time>2020-01-03T07:31:23Z</time>
      </trkpt>
      <trkpt lat="61.271930231082" lon="12.261980500239">
        <ele>469.2</ele>
        <time>2020-01-03T07:31:27Z</time>
      </trkpt>
      <trkpt lat="61.272120332574" lon="12.261895088678">
        <ele>468.6</ele>
        <time>2020-01-03T07:31:31Z</time>
      </trkpt>
      <trkpt lat="61.272604554937" lon="12.261694845087">
        <ele>467.6</ele>
        <time>2020-01-03T07:31:40Z</time>
      </trkpt>
      <trkpt lat="61.272664317884" lon="12.261667352455">
        <ele>467.4</ele>
        <time>2020-01-03T07:31:41Z</time>
      </trkpt>
      <trkpt lat="61.272894736315" lon="12.261519831015">
        <ele>466.4</ele>
        <time>2020-01-03T07:31:45Z</time>
      </trkpt>
      <trkpt lat="61.273258426956" lon="12.261415979274">
        <ele>465.4</ele>
        <time>2020-01-03T07:31:51Z</time>
      </trkpt>
      <trkpt lat="61.273653968817" lon="12.261315647931">
        <ele>464</ele>
        <time>2020-01-03T07:31:57Z</time>
      </trkpt>
      <trkpt lat="61.27386326486" lon="12.261242976858">
        <ele>462.6</ele>
        <time>2020-01-03T07:32:00Z</time>
      </trkpt>
      <trkpt lat="61.274052779619" lon="12.261173071812">
        <ele>461</ele>
        <time>2020-01-03T07:32:03Z</time>
      </trkpt>
      <trkpt lat="61.274170796771" lon="12.261125630258">
        <ele>459.4</ele>
        <time>2020-01-03T07:32:05Z</time>
      </trkpt>
      <trkpt lat="61.274294848891" lon="12.261078943075">
        <ele>459</ele>
        <time>2020-01-03T07:32:07Z</time>
      </trkpt>
      <trkpt lat="61.274457206294" lon="12.261023622535">
        <ele>459.4</ele>
        <time>2020-01-03T07:32:10Z</time>
      </trkpt>
      <trkpt lat="61.274744034912" lon="12.260919016423">
        <ele>459.8</ele>
        <time>2020-01-03T07:32:16Z</time>
      </trkpt>
      <trkpt lat="61.27492525159" lon="12.260845842436">
        <ele>460</ele>
        <time>2020-01-03T07:32:20Z</time>
      </trkpt>
      <trkpt lat="61.275112084141" lon="12.260781050349">
        <ele>460</ele>
        <time>2020-01-03T07:32:24Z</time>
      </trkpt>
      <trkpt lat="61.275257510106" lon="12.260726651818">
        <ele>459.8</ele>
        <time>2020-01-03T07:32:27Z</time>
      </trkpt>
      <trkpt lat="61.275726728868" lon="12.260541998561">
        <ele>458.4</ele>
        <time>2020-01-03T07:32:36Z</time>
      </trkpt>
      <trkpt lat="61.275953962177" lon="12.260400260632">
        <ele>457</ele>
        <time>2020-01-03T07:32:40Z</time>
      </trkpt>
      <trkpt lat="61.276069548578" lon="12.260349131042">
        <ele>455.6</ele>
        <time>2020-01-03T07:32:42Z</time>
      </trkpt>
      <trkpt lat="61.27621690238" lon="12.260284422774">
        <ele>455.4</ele>
        <time>2020-01-03T07:32:45Z</time>
      </trkpt>
      <trkpt lat="61.276310947298" lon="12.260236059211">
        <ele>455.8</ele>
        <time>2020-01-03T07:32:47Z</time>
      </trkpt>
      <trkpt lat="61.27639711323" lon="12.260193562978">
        <ele>456.4</ele>
        <time>2020-01-03T07:32:49Z</time>
      </trkpt>
      <trkpt lat="61.27648763775" lon="12.260158442817">
        <ele>456.8</ele>
        <time>2020-01-03T07:32:51Z</time>
      </trkpt>
      <trkpt lat="61.276615126449" lon="12.260097506404">
        <ele>456.6</ele>
        <time>2020-01-03T07:32:54Z</time>
      </trkpt>
      <trkpt lat="61.276846047794" lon="12.259982842012">
        <ele>456.4</ele>
        <time>2020-01-03T07:32:59Z</time>
      </trkpt>
      <trkpt lat="61.277131283851" lon="12.259867758525">
        <ele>456</ele>
        <time>2020-01-03T07:33:05Z</time>
      </trkpt>
      <trkpt lat="61.277276290721" lon="12.259794584538">
        <ele>455.6</ele>
        <time>2020-01-03T07:33:08Z</time>
      </trkpt>
      <trkpt lat="61.277323061723" lon="12.259766505173">
        <ele>455.6</ele>
        <time>2020-01-03T07:33:09Z</time>
      </trkpt>
      <trkpt lat="61.277418699202" lon="12.259688637322">
        <ele>455.4</ele>
        <time>2020-01-03T07:33:11Z</time>
      </trkpt>
      <trkpt lat="61.277564963357" lon="12.25960750053">
        <ele>455.2</ele>
        <time>2020-01-03T07:33:14Z</time>
      </trkpt>
      <trkpt lat="61.27775330465" lon="12.259531811973">
        <ele>454.6</ele>
        <time>2020-01-03T07:33:18Z</time>
      </trkpt>
      <trkpt lat="61.277855647649" lon="12.259508929386">
        <ele>453.8</ele>
        <time>2020-01-03T07:33:20Z</time>
      </trkpt>
      <trkpt lat="61.278135854566" lon="12.259385631637">
        <ele>454.4</ele>
        <time>2020-01-03T07:33:25Z</time>
      </trkpt>
      <trkpt lat="61.278396364018" lon="12.259233081057">
        <ele>453.4</ele>
        <time>2020-01-03T07:33:30Z</time>
      </trkpt>
      <trkpt lat="61.278494432248" lon="12.259170384445">
        <ele>453</ele>
        <time>2020-01-03T07:33:32Z</time>
      </trkpt>
      <trkpt lat="61.278582442198" lon="12.259098467743">
        <ele>452.8</ele>
        <time>2020-01-03T07:33:34Z</time>
      </trkpt>
      <trkpt lat="61.278626028078" lon="12.25905261875">
        <ele>453</ele>
        <time>2020-01-03T07:33:35Z</time>
      </trkpt>
      <trkpt lat="61.278758965012" lon="12.258943737869">
        <ele>453.2</ele>
        <time>2020-01-03T07:33:38Z</time>
      </trkpt>
      <trkpt lat="61.278976140041" lon="12.258751959997">
        <ele>453.8</ele>
        <time>2020-01-03T07:33:43Z</time>
      </trkpt>
      <trkpt lat="61.279057947385" lon="12.25867040411">
        <ele>453.8</ele>
        <time>2020-01-03T07:33:45Z</time>
      </trkpt>
      <trkpt lat="61.279143526584" lon="12.258588345309">
        <ele>454</ele>
        <time>2020-01-03T07:33:47Z</time>
      </trkpt>
      <trkpt lat="61.279282833762" lon="12.258440823869">
        <ele>454.4</ele>
        <time>2020-01-03T07:33:50Z</time>
      </trkpt>
      <trkpt lat="61.279349134591" lon="12.258347365684">
        <ele>454.6</ele>
        <time>2020-01-03T07:33:52Z</time>
      </trkpt>
      <trkpt lat="61.279429181736" lon="12.258278717923">
        <ele>454.6</ele>
        <time>2020-01-03T07:33:54Z</time>
      </trkpt>
      <trkpt lat="61.279507720139" lon="12.258204957203">
        <ele>454.6</ele>
        <time>2020-01-03T07:33:56Z</time>
      </trkpt>
      <trkpt lat="61.279592377329" lon="12.258149636663">
        <ele>454.6</ele>
        <time>2020-01-03T07:33:58Z</time>
      </trkpt>
      <trkpt lat="61.279732187421" lon="12.258040336687">
        <ele>454.2</ele>
        <time>2020-01-03T07:34:01Z</time>
      </trkpt>
      <trkpt lat="61.279873422436" lon="12.257932126358">
        <ele>454</ele>
        <time>2020-01-03T07:34:04Z</time>
      </trkpt>
      <trkpt lat="61.280019183677" lon="12.25784646334">
        <ele>453.4</ele>
        <time>2020-01-03T07:34:07Z</time>
      </trkpt>
      <trkpt lat="61.280226970978" lon="12.257717046804">
        <ele>452.2</ele>
        <time>2020-01-03T07:34:11Z</time>
      </trkpt>
      <trkpt lat="61.280477170693" lon="12.257555276134">
        <ele>451</ele>
        <time>2020-01-03T07:34:16Z</time>
      </trkpt>
      <trkpt lat="61.280719826698" lon="12.257338687838">
        <ele>450.4</ele>
        <time>2020-01-03T07:34:21Z</time>
      </trkpt>
      <trkpt lat="61.280941611772" lon="12.257060995491">
        <ele>450</ele>
        <time>2020-01-03T07:34:26Z</time>
      </trkpt>
      <trkpt lat="61.281017635605" lon="12.256927388005">
        <ele>450.2</ele>
        <time>2020-01-03T07:34:28Z</time>
      </trkpt>
      <trkpt lat="61.281091647782" lon="12.256781375307">
        <ele>450</ele>
        <time>2020-01-03T07:34:30Z</time>
      </trkpt>
      <trkpt lat="61.281243108715" lon="12.256495133422">
        <ele>449.6</ele>
        <time>2020-01-03T07:34:34Z</time>
      </trkpt>
      <trkpt lat="61.281351738139" lon="12.256323304472">
        <ele>449</ele>
        <time>2020-01-03T07:34:37Z</time>
      </trkpt>
      <trkpt lat="61.281498253751" lon="12.256129179668">
        <ele>449</ele>
        <time>2020-01-03T07:34:41Z</time>
      </trkpt>
      <trkpt lat="61.281579893457" lon="12.256062627382">
        <ele>448.8</ele>
        <time>2020-01-03T07:34:43Z</time>
      </trkpt>
      <trkpt lat="61.281717021341" lon="12.255939916366">
        <ele>448.8</ele>
        <time>2020-01-03T07:34:46Z</time>
      </trkpt>
      <trkpt lat="61.2818478628" lon="12.255844614163">
        <ele>449.2</ele>
        <time>2020-01-03T07:34:49Z</time>
      </trkpt>
      <trkpt lat="61.28229713264" lon="12.25549534039">
        <ele>449.4</ele>
        <time>2020-01-03T07:35:00Z</time>
      </trkpt>
      <trkpt lat="61.28237843707" lon="12.255452760338">
        <ele>449.8</ele>
        <time>2020-01-03T07:35:02Z</time>
      </trkpt>
      <trkpt lat="61.282470470332" lon="12.255401295472">
        <ele>450</ele>
        <time>2020-01-03T07:35:04Z</time>
      </trkpt>
      <trkpt lat="61.282643221291" lon="12.255286714899">
        <ele>449</ele>
        <time>2020-01-03T07:35:08Z</time>
      </trkpt>
      <trkpt lat="61.282735170734" lon="12.255244386304">
        <ele>449</ele>
        <time>2020-01-03T07:35:10Z</time>
      </trkpt>
      <trkpt lat="61.282827623091" lon="12.255176241457">
        <ele>448.8</ele>
        <time>2020-01-03T07:35:12Z</time>
      </trkpt>
      <trkpt lat="61.282978078196" lon="12.255084208195">
        <ele>448.2</ele>
        <time>2020-01-03T07:35:15Z</time>
      </trkpt>
      <trkpt lat="61.28303222527" lon="12.255064929825">
        <ele>448</ele>
        <time>2020-01-03T07:35:16Z</time>
      </trkpt>
      <trkpt lat="61.283281838252" lon="12.254935178013">
        <ele>446.6</ele>
        <time>2020-01-03T07:35:21Z</time>
      </trkpt>
      <trkpt lat="61.28332475358" lon="12.25490609282">
        <ele>446.8</ele>
        <time>2020-01-03T07:35:22Z</time>
      </trkpt>
      <trkpt lat="61.283415361919" lon="12.254838953801">
        <ele>446.8</ele>
        <time>2020-01-03T07:35:24Z</time>
      </trkpt>
      <trkpt lat="61.283560201151" lon="12.254728145083">
        <ele>446.8</ele>
        <time>2020-01-03T07:35:27Z</time>
      </trkpt>
      <trkpt lat="61.283702525813" lon="12.254616162899">
        <ele>446.8</ele>
        <time>2020-01-03T07:35:30Z</time>
      </trkpt>
      <trkpt lat="61.28380503645" lon="12.254539552333">
        <ele>446.8</ele>
        <time>2020-01-03T07:35:32Z</time>
      </trkpt>
      <trkpt lat="61.283891286201" lon="12.254473670599">
        <ele>446.8</ele>
        <time>2020-01-03T07:35:34Z</time>
      </trkpt>
      <trkpt lat="61.283979799065" lon="12.25441239891">
        <ele>447</ele>
        <time>2020-01-03T07:35:36Z</time>
      </trkpt>
      <trkpt lat="61.284102090986" lon="12.254335369249">
        <ele>447.4</ele>
        <time>2020-01-03T07:35:39Z</time>
      </trkpt>
      <trkpt lat="61.284187921642" lon="12.254279629614">
        <ele>447.8</ele>
        <time>2020-01-03T07:35:41Z</time>
      </trkpt>
      <trkpt lat="61.284231423703" lon="12.25424895186">
        <ele>447.8</ele>
        <time>2020-01-03T07:35:42Z</time>
      </trkpt>
      <trkpt lat="61.284386488853" lon="12.254118780953">
        <ele>448.2</ele>
        <time>2020-01-03T07:35:46Z</time>
      </trkpt>
      <trkpt lat="61.284559491269" lon="12.254006379674">
        <ele>448.6</ele>
        <time>2020-01-03T07:35:50Z</time>
      </trkpt>
      <trkpt lat="61.284599724389" lon="12.253991040797">
        <ele>448.8</ele>
        <time>2020-01-03T07:35:51Z</time>
      </trkpt>
      <trkpt lat="61.284640628061" lon="12.25396732002">
        <ele>448.8</ele>
        <time>2020-01-03T07:35:52Z</time>
      </trkpt>
      <trkpt lat="61.284731655495" lon="12.253910071643">
        <ele>449</ele>
        <time>2020-01-03T07:35:54Z</time>
      </trkpt>
      <trkpt lat="61.284894096717" lon="12.253789707559">
        <ele>448.4</ele>
        <time>2020-01-03T07:35:58Z</time>
      </trkpt>
      <trkpt lat="61.28498101702" lon="12.253732878277">
        <ele>448.4</ele>
        <time>2020-01-03T07:36:00Z</time>
      </trkpt>
      <trkpt lat="61.28506902697" lon="12.253679653212">
        <ele>448.2</ele>
        <time>2020-01-03T07:36:02Z</time>
      </trkpt>
      <trkpt lat="61.285199952248" lon="12.253595498936">
        <ele>448</ele>
        <time>2020-01-03T07:36:05Z</time>
      </trkpt>
      <trkpt lat="61.285419138933" lon="12.253458454871">
        <ele>447.6</ele>
        <time>2020-01-03T07:36:10Z</time>
      </trkpt>
      <trkpt lat="61.285549142202" lon="12.253364326134">
        <ele>447.6</ele>
        <time>2020-01-03T07:36:13Z</time>
      </trkpt>
      <trkpt lat="61.285906714056" lon="12.253097194981">
        <ele>446.8</ele>
        <time>2020-01-03T07:36:21Z</time>
      </trkpt>
      <trkpt lat="61.285989946323" lon="12.25302519446">
        <ele>446.8</ele>
        <time>2020-01-03T07:36:23Z</time>
      </trkpt>
      <trkpt lat="61.286068317088" lon="12.252974986879">
        <ele>447</ele>
        <time>2020-01-03T07:36:25Z</time>
      </trkpt>
      <trkpt lat="61.286157416685" lon="12.25291539157">
        <ele>447.4</ele>
        <time>2020-01-03T07:36:27Z</time>
      </trkpt>
      <trkpt lat="61.286394037722" lon="12.252820927557">
        <ele>447.8</ele>
        <time>2020-01-03T07:36:32Z</time>
      </trkpt>
      <trkpt lat="61.28653837404" lon="12.252789914527">
        <ele>447.4</ele>
        <time>2020-01-03T07:36:35Z</time>
      </trkpt>
      <trkpt lat="61.286642561057" lon="12.252773066908">
        <ele>447</ele>
        <time>2020-01-03T07:36:37Z</time>
      </trkpt>
      <trkpt lat="61.286742138029" lon="12.25273266615">
        <ele>447</ele>
        <time>2020-01-03T07:36:39Z</time>
      </trkpt>
      <trkpt lat="61.286840290078" lon="12.252678938171">
        <ele>447</ele>
        <time>2020-01-03T07:36:41Z</time>
      </trkpt>
      <trkpt lat="61.286962665818" lon="12.252556897707">
        <ele>446.6</ele>
        <time>2020-01-03T07:36:44Z</time>
      </trkpt>
      <trkpt lat="61.287373546556" lon="12.252033448052">
        <ele>446.6</ele>
        <time>2020-01-03T07:36:56Z</time>
      </trkpt>
      <trkpt lat="61.287703122864" lon="12.251582166556">
        <ele>447.6</ele>
        <time>2020-01-03T07:37:06Z</time>
      </trkpt>
      <trkpt lat="61.287793395927" lon="12.251445038672">
        <ele>448</ele>
        <time>2020-01-03T07:37:09Z</time>
      </trkpt>
      <trkpt lat="61.287924907938" lon="12.251226019625">
        <ele>448.6</ele>
        <time>2020-01-03T07:37:14Z</time>
      </trkpt>
      <trkpt lat="61.288134790714" lon="12.250868699228">
        <ele>450</ele>
        <time>2020-01-03T07:37:21Z</time>
      </trkpt>
      <trkpt lat="61.288166222839" lon="12.250807008444">
        <ele>450.2</ele>
        <time>2020-01-03T07:37:22Z</time>
      </trkpt>
      <trkpt lat="61.288305781474" lon="12.250562424602">
        <ele>451</ele>
        <time>2020-01-03T07:37:27Z</time>
      </trkpt>
      <trkpt lat="61.288333190287" lon="12.250515234505">
        <ele>451</ele>
        <time>2020-01-03T07:37:28Z</time>
      </trkpt>
      <trkpt lat="61.288391025397" lon="12.250398223181">
        <ele>451</ele>
        <time>2020-01-03T07:37:30Z</time>
      </trkpt>
      <trkpt lat="61.288446178299" lon="12.250335358931">
        <ele>450.8</ele>
        <time>2020-01-03T07:37:32Z</time>
      </trkpt>
      <trkpt lat="61.288622449656" lon="12.250140395937">
        <ele>450.6</ele>
        <time>2020-01-03T07:37:37Z</time>
      </trkpt>
      <trkpt lat="61.288970298506" lon="12.249762456066">
        <ele>451.8</ele>
        <time>2020-01-03T07:37:47Z</time>
      </trkpt>
      <trkpt lat="61.289084124708" lon="12.249682911835">
        <ele>451.8</ele>
        <time>2020-01-03T07:37:50Z</time>
      </trkpt>
      <trkpt lat="61.289237932573" lon="12.249584089234">
        <ele>452</ele>
        <time>2020-01-03T07:37:54Z</time>
      </trkpt>
      <trkpt lat="61.289319404641" lon="12.249530193617">
        <ele>452</ele>
        <time>2020-01-03T07:37:56Z</time>
      </trkpt>
      <trkpt lat="61.289399451786" lon="12.249464311883">
        <ele>452.2</ele>
        <time>2020-01-03T07:37:58Z</time>
      </trkpt>
      <trkpt lat="61.289520905517" lon="12.249365908377">
        <ele>452.4</ele>
        <time>2020-01-03T07:38:01Z</time>
      </trkpt>
      <trkpt lat="61.289607239087" lon="12.249299020815">
        <ele>452.6</ele>
        <time>2020-01-03T07:38:03Z</time>
      </trkpt>
      <trkpt lat="61.2898525773" lon="12.249123503829">
        <ele>452.6</ele>
        <time>2020-01-03T07:38:09Z</time>
      </trkpt>
      <trkpt lat="61.290105962137" lon="12.248945220816">
        <ele>452.2</ele>
        <time>2020-01-03T07:38:15Z</time>
      </trkpt>
      <trkpt lat="61.290238479976" lon="12.248844386559">
        <ele>452</ele>
        <time>2020-01-03T07:38:18Z</time>
      </trkpt>
      <trkpt lat="61.290376026955" lon="12.248724357751">
        <ele>452.2</ele>
        <time>2020-01-03T07:38:21Z</time>
      </trkpt>
      <trkpt lat="61.290465378009" lon="12.248657218732">
        <ele>452.2</ele>
        <time>2020-01-03T07:38:23Z</time>
      </trkpt>
      <trkpt lat="61.290556740719" lon="12.248590163532">
        <ele>452.4</ele>
        <time>2020-01-03T07:38:25Z</time>
      </trkpt>
      <trkpt lat="61.290639805348" lon="12.248522856875">
        <ele>452.4</ele>
        <time>2020-01-03T07:38:27Z</time>
      </trkpt>
      <trkpt lat="61.290759247423" lon="12.248407857207">
        <ele>452.4</ele>
        <time>2020-01-03T07:38:30Z</time>
      </trkpt>
      <trkpt lat="61.290909870166" lon="12.24827600992">
        <ele>452.2</ele>
        <time>2020-01-03T07:38:34Z</time>
      </trkpt>
      <trkpt lat="61.290993605347" lon="12.248218258629">
        <ele>452.4</ele>
        <time>2020-01-03T07:38:36Z</time>
      </trkpt>
      <trkpt lat="61.291069964456" lon="12.248150029963">
        <ele>452.6</ele>
        <time>2020-01-03T07:38:38Z</time>
      </trkpt>
      <trkpt lat="61.291304825294" lon="12.247939392816">
        <ele>452.6</ele>
        <time>2020-01-03T07:38:44Z</time>
      </trkpt>
      <trkpt lat="61.291387722285" lon="12.247866805562">
        <ele>452.6</ele>
        <time>2020-01-03T07:38:46Z</time>
      </trkpt>
      <trkpt lat="61.29151303169" lon="12.247785752589">
        <ele>452.6</ele>
        <time>2020-01-03T07:38:49Z</time>
      </trkpt>
      <trkpt lat="61.29183405846" lon="12.247661700469">
        <ele>452</ele>
        <time>2020-01-03T07:38:56Z</time>
      </trkpt>
      <trkpt lat="61.292147457701" lon="12.247759098147">
        <ele>451</ele>
        <time>2020-01-03T07:39:02Z</time>
      </trkpt>
      <trkpt lat="61.292198838748" lon="12.247759517242">
        <ele>450.8</ele>
        <time>2020-01-03T07:39:03Z</time>
      </trkpt>
      <trkpt lat="61.292430263007" lon="12.24777644868">
        <ele>450.4</ele>
        <time>2020-01-03T07:39:07Z</time>
      </trkpt>
      <trkpt lat="61.292576024248" lon="12.247748034039">
        <ele>450.4</ele>
        <time>2020-01-03T07:39:10Z</time>
      </trkpt>
      <trkpt lat="61.292661771085" lon="12.247722217787">
        <ele>450.8</ele>
        <time>2020-01-03T07:39:12Z</time>
      </trkpt>
      <trkpt lat="61.292874336069" lon="12.247659353537">
        <ele>450</ele>
        <time>2020-01-03T07:39:17Z</time>
      </trkpt>
      <trkpt lat="61.292915658836" lon="12.247648540886">
        <ele>449.6</ele>
        <time>2020-01-03T07:39:18Z</time>
      </trkpt>
      <trkpt lat="61.29300165713" lon="12.247621970263">
        <ele>449.2</ele>
        <time>2020-01-03T07:39:20Z</time>
      </trkpt>
      <trkpt lat="61.293265016428" lon="12.247524740223">
        <ele>448.8</ele>
        <time>2020-01-03T07:39:25Z</time>
      </trkpt>
      <trkpt lat="61.293315224009" lon="12.247494481564">
        <ele>448.6</ele>
        <time>2020-01-03T07:39:26Z</time>
      </trkpt>
      <trkpt lat="61.293366688875" lon="12.247471179882">
        <ele>448.2</ele>
        <time>2020-01-03T07:39:27Z</time>
      </trkpt>
      <trkpt lat="61.293477329955" lon="12.247423403052">
        <ele>447.8</ele>
        <time>2020-01-03T07:39:29Z</time>
      </trkpt>
      <trkpt lat="61.293713531897" lon="12.247364981209">
        <ele>447.8</ele>
        <time>2020-01-03T07:39:33Z</time>
      </trkpt>
      <trkpt lat="61.293905645045" lon="12.247296417267">
        <ele>447.4</ele>
        <time>2020-01-03T07:39:36Z</time>
      </trkpt>
      <trkpt lat="61.294117204201" lon="12.247221818357">
        <ele>446.4</ele>
        <time>2020-01-03T07:39:39Z</time>
      </trkpt>
      <trkpt lat="61.294341168569" lon="12.247164150885">
        <ele>445.2</ele>
        <time>2020-01-03T07:39:42Z</time>
      </trkpt>
      <trkpt lat="61.29483058771" lon="12.24700866664">
        <ele>445.6</ele>
        <time>2020-01-03T07:39:50Z</time>
      </trkpt>
      <trkpt lat="61.294930499958" lon="12.246968182063">
        <ele>445</ele>
        <time>2020-01-03T07:39:52Z</time>
      </trkpt>
      <trkpt lat="61.29502337141" lon="12.246941359983">
        <ele>444.6</ele>
        <time>2020-01-03T07:39:54Z</time>
      </trkpt>
      <trkpt lat="61.295389576621" lon="12.246803058633">
        <ele>444.2</ele>
        <time>2020-01-03T07:40:02Z</time>
      </trkpt>
      <trkpt lat="61.295488734498" lon="12.246776236553">
        <ele>444.2</ele>
        <time>2020-01-03T07:40:04Z</time>
      </trkpt>
      <trkpt lat="61.295634160463" lon="12.246723430583">
        <ele>444.2</ele>
        <time>2020-01-03T07:40:07Z</time>
      </trkpt>
      <trkpt lat="61.295733066883" lon="12.246692920467">
        <ele>444.6</ele>
        <time>2020-01-03T07:40:09Z</time>
      </trkpt>
      <trkpt lat="61.295901123978" lon="12.246644808361">
        <ele>444</ele>
        <time>2020-01-03T07:40:12Z</time>
      </trkpt>
      <trkpt lat="61.296129279296" lon="12.246589320183">
        <ele>442.8</ele>
        <time>2020-01-03T07:40:16Z</time>
      </trkpt>
      <trkpt lat="61.296591541081" lon="12.246459987466">
        <ele>442.2</ele>
        <time>2020-01-03T07:40:25Z</time>
      </trkpt>
      <trkpt lat="61.296683071429" lon="12.246433584481">
        <ele>441.6</ele>
        <time>2020-01-03T07:40:27Z</time>
      </trkpt>
      <trkpt lat="61.296732105544" lon="12.246425956952">
        <ele>441.8</ele>
        <time>2020-01-03T07:40:28Z</time>
      </trkpt>
      <trkpt lat="61.296946598365" lon="12.246381951977">
        <ele>440.8</ele>
        <time>2020-01-03T07:40:32Z</time>
      </trkpt>
      <trkpt lat="61.297001583629" lon="12.246363176521">
        <ele>440.4</ele>
        <time>2020-01-03T07:40:33Z</time>
      </trkpt>
      <trkpt lat="61.297162013195" lon="12.246320680288">
        <ele>439.6</ele>
        <time>2020-01-03T07:40:36Z</time>
      </trkpt>
      <trkpt lat="61.297277180501" lon="12.246301821013">
        <ele>439.4</ele>
        <time>2020-01-03T07:40:38Z</time>
      </trkpt>
      <trkpt lat="61.297333506869" lon="12.246274747476">
        <ele>439.4</ele>
        <time>2020-01-03T07:40:39Z</time>
      </trkpt>
      <trkpt lat="61.297667106489" lon="12.246153377564">
        <ele>438.2</ele>
        <time>2020-01-03T07:40:45Z</time>
      </trkpt>
      <trkpt lat="61.297819237974" lon="12.246098476119">
        <ele>436.8</ele>
        <time>2020-01-03T07:40:48Z</time>
      </trkpt>
      <trkpt lat="61.29795871279" lon="12.246041143923">
        <ele>436.8</ele>
        <time>2020-01-03T07:40:51Z</time>
      </trkpt>
      <trkpt lat="61.298057786848" lon="12.245999066785">
        <ele>436.8</ele>
        <time>2020-01-03T07:40:53Z</time>
      </trkpt>
      <trkpt lat="61.298196172017" lon="12.245944416797">
        <ele>437.8</ele>
        <time>2020-01-03T07:40:56Z</time>
      </trkpt>
      <trkpt lat="61.298238584431" lon="12.245922707676">
        <ele>438.2</ele>
        <time>2020-01-03T07:40:57Z</time>
      </trkpt>
      <trkpt lat="61.298683328045" lon="12.245730259252">
        <ele>438.6</ele>
        <time>2020-01-03T07:41:07Z</time>
      </trkpt>
      <trkpt lat="61.298989937947" lon="12.245646943166">
        <ele>437.4</ele>
        <time>2020-01-03T07:41:13Z</time>
      </trkpt>
      <trkpt lat="61.299206526243" lon="12.245573601541">
        <ele>438</ele>
        <time>2020-01-03T07:41:18Z</time>
      </trkpt>
      <trkpt lat="61.299407524205" lon="12.245522388132">
        <ele>438.4</ele>
        <time>2020-01-03T07:41:23Z</time>
      </trkpt>
      <trkpt lat="61.299627129985" lon="12.245449800878">
        <ele>439.8</ele>
        <time>2020-01-03T07:41:28Z</time>
      </trkpt>
      <trkpt lat="61.299746739698" lon="12.245401185858">
        <ele>440</ele>
        <time>2020-01-03T07:41:31Z</time>
      </trkpt>
      <trkpt lat="61.299818321124" lon="12.24531719922">
        <ele>440</ele>
        <time>2020-01-03T07:41:33Z</time>
      </trkpt>
      <trkpt lat="61.299873474026" lon="12.245159954776">
        <ele>439.8</ele>
        <time>2020-01-03T07:41:35Z</time>
      </trkpt>
      <trkpt lat="61.29993851757" lon="12.244997178278">
        <ele>439.6</ele>
        <time>2020-01-03T07:41:37Z</time>
      </trkpt>
      <trkpt lat="61.300049242469" lon="12.244846806992">
        <ele>438.4</ele>
        <time>2020-01-03T07:41:40Z</time>
      </trkpt>
      <trkpt lat="61.300241523255" lon="12.244616304742">
        <ele>437.4</ele>
        <time>2020-01-03T07:41:51Z</time>
      </trkpt>
      <trkpt lat="61.300270859905" lon="12.244584285884">
        <ele>437.2</ele>
        <time>2020-01-03T07:41:55Z</time>
      </trkpt>
      <trkpt lat="61.300331712499" lon="12.244549668637">
        <ele>437.2</ele>
        <time>2020-01-03T07:41:58Z</time>
      </trkpt>
      <trkpt lat="61.300521646353" lon="12.244264684037">
        <ele>438.2</ele>
        <time>2020-01-03T07:42:04Z</time>
      </trkpt>
      <trkpt lat="61.30060152586" lon="12.244182373779">
        <ele>438.6</ele>
        <time>2020-01-03T07:42:06Z</time>
      </trkpt>
      <trkpt lat="61.300804954573" lon="12.244073911993">
        <ele>439</ele>
        <time>2020-01-03T07:42:11Z</time>
      </trkpt>
      <trkpt lat="61.301085329128" lon="12.24408757449">
        <ele>437.2</ele>
        <time>2020-01-03T07:42:16Z</time>
      </trkpt>
      <trkpt lat="61.301260007924" lon="12.244073576717">
        <ele>436.4</ele>
        <time>2020-01-03T07:42:19Z</time>
      </trkpt>
      <trkpt lat="61.301357824697" lon="12.244016244521">
        <ele>436.4</ele>
        <time>2020-01-03T07:42:21Z</time>
      </trkpt>
      <trkpt lat="61.301430076675" lon="12.243941477973">
        <ele>436.2</ele>
        <time>2020-01-03T07:42:23Z</time>
      </trkpt>
      <trkpt lat="61.301695279991" lon="12.243801164967">
        <ele>436.4</ele>
        <time>2020-01-03T07:42:30Z</time>
      </trkpt>
      <trkpt lat="61.302145639478" lon="12.243806864659">
        <ele>435.6</ele>
        <time>2020-01-03T07:42:40Z</time>
      </trkpt>
      <trkpt lat="61.30244051472" lon="12.243725141134">
        <ele>435.6</ele>
        <time>2020-01-03T07:42:45Z</time>
      </trkpt>
      <trkpt lat="61.302534224362" lon="12.243667808938">
        <ele>435</ele>
        <time>2020-01-03T07:42:47Z</time>
      </trkpt>
      <trkpt lat="61.302582420287" lon="12.243634281338">
        <ele>434.8</ele>
        <time>2020-01-03T07:42:48Z</time>
      </trkpt>
      <trkpt lat="61.302677219576" lon="12.243556497306">
        <ele>435.2</ele>
        <time>2020-01-03T07:42:50Z</time>
      </trkpt>
      <trkpt lat="61.302874948597" lon="12.243419704698">
        <ele>435.6</ele>
        <time>2020-01-03T07:42:54Z</time>
      </trkpt>
      <trkpt lat="61.303024816969" lon="12.243397241206">
        <ele>434.8</ele>
        <time>2020-01-03T07:42:57Z</time>
      </trkpt>
      <trkpt lat="61.303210643692" lon="12.243425320571">
        <ele>433.8</ele>
        <time>2020-01-03T07:43:01Z</time>
      </trkpt>
      <trkpt lat="61.303289098276" lon="12.243345692521">
        <ele>433.2</ele>
        <time>2020-01-03T07:43:03Z</time>
      </trkpt>
      <trkpt lat="61.303346179015" lon="12.243196829977">
        <ele>432.8</ele>
        <time>2020-01-03T07:43:05Z</time>
      </trkpt>
      <trkpt lat="61.303373084914" lon="12.243043105931">
        <ele>432.8</ele>
        <time>2020-01-03T07:43:07Z</time>
      </trkpt>
      <trkpt lat="61.303380377167" lon="12.242840431589">
        <ele>433.2</ele>
        <time>2020-01-03T07:43:10Z</time>
      </trkpt>
      <trkpt lat="61.303316758546" lon="12.242468610505">
        <ele>435.2</ele>
        <time>2020-01-03T07:43:16Z</time>
      </trkpt>
      <trkpt lat="61.303313573424" lon="12.242376661062">
        <ele>436</ele>
        <time>2020-01-03T07:43:18Z</time>
      </trkpt>
      <trkpt lat="61.303320949496" lon="12.242323687454">
        <ele>436.4</ele>
        <time>2020-01-03T07:43:19Z</time>
      </trkpt>
      <trkpt lat="61.30335414182" lon="12.242230816002">
        <ele>437.2</ele>
        <time>2020-01-03T07:43:21Z</time>
      </trkpt>
      <trkpt lat="61.303384568117" lon="12.242198713325">
        <ele>437.8</ele>
        <time>2020-01-03T07:43:22Z</time>
      </trkpt>
      <trkpt lat="61.303453467335" lon="12.242181362792">
        <ele>438.2</ele>
        <time>2020-01-03T07:43:24Z</time>
      </trkpt>
      <trkpt lat="61.303523540019" lon="12.242155378902">
        <ele>438</ele>
        <time>2020-01-03T07:43:26Z</time>
      </trkpt>
      <trkpt lat="61.303645245207" lon="12.242163509345">
        <ele>436.6</ele>
        <time>2020-01-03T07:43:40Z</time>
      </trkpt>
      <trkpt lat="61.303645245207" lon="12.242163509345">
        <ele>437.2</ele>
        <time>2020-01-03T07:44:09Z</time>
      </trkpt>
    </trkseg>
  </trk>
</gpx>